<?xml version="1.0" encoding="UTF-8" standalone="no" ?>
<gpx xmlns="http://www.topografix.com/GPX/1/1" xmlns:xsi="http://www.w3.org/2001/XMLSchema-instance" xsi:schemaLocation="http://www.topografix.com/GPX/1/1 http://www.topografix.com/GPX/1/1/gpx.xsd" version="1.1" creator="VisuGPX - https://www.visugpx.com">
  <metadata>
    <name>Autour de Villefranche du Périgord</name>
    <desc><![CDATA[Une trentaine de kilomètres, avec des passages vraiment superbes mais une difficultés assez élevées.]]></desc>
  </metadata>
  <trk>
    <name><![CDATA[03-MARS-13 11:53:54]]></name>
    <trkseg>
      <trkpt lat="44.63099" lon="1.07528">
        <ele>214.03</ele>
        <time>2013-03-03T07:54:27Z</time>
      </trkpt>
      <trkpt lat="44.63099" lon="1.07531">
        <ele>214.99</ele>
        <time>2013-03-03T07:54:41Z</time>
      </trkpt>
      <trkpt lat="44.63094" lon="1.07541">
        <ele>215.47</ele>
        <time>2013-03-03T07:54:51Z</time>
      </trkpt>
      <trkpt lat="44.63093" lon="1.07548">
        <ele>215.47</ele>
        <time>2013-03-03T07:54:55Z</time>
      </trkpt>
      <trkpt lat="44.63072" lon="1.07556">
        <ele>216.91</ele>
        <time>2013-03-03T07:55:04Z</time>
      </trkpt>
      <trkpt lat="44.63068" lon="1.07554">
        <ele>217.4</ele>
        <time>2013-03-03T07:55:12Z</time>
      </trkpt>
      <trkpt lat="44.63068" lon="1.07556">
        <ele>216.91</ele>
        <time>2013-03-03T07:55:32Z</time>
      </trkpt>
      <trkpt lat="44.63067" lon="1.07557">
        <ele>215.95</ele>
        <time>2013-03-03T07:55:55Z</time>
      </trkpt>
      <trkpt lat="44.63067" lon="1.07557">
        <ele>219.32</ele>
        <time>2013-03-03T07:56:11Z</time>
      </trkpt>
      <trkpt lat="44.63067" lon="1.07556">
        <ele>218.84</ele>
        <time>2013-03-03T07:56:29Z</time>
      </trkpt>
      <trkpt lat="44.63067" lon="1.07556">
        <ele>219.32</ele>
        <time>2013-03-03T07:56:37Z</time>
      </trkpt>
      <trkpt lat="44.63063" lon="1.07559">
        <ele>218.84</ele>
        <time>2013-03-03T07:56:41Z</time>
      </trkpt>
      <trkpt lat="44.63056" lon="1.07587">
        <ele>219.32</ele>
        <time>2013-03-03T07:56:51Z</time>
      </trkpt>
      <trkpt lat="44.63044" lon="1.07622">
        <ele>219.8</ele>
        <time>2013-03-03T07:57:04Z</time>
      </trkpt>
      <trkpt lat="44.63034" lon="1.07667">
        <ele>219.32</ele>
        <time>2013-03-03T07:57:20Z</time>
      </trkpt>
      <trkpt lat="44.63022" lon="1.07718">
        <ele>218.36</ele>
        <time>2013-03-03T07:57:36Z</time>
      </trkpt>
      <trkpt lat="44.63007" lon="1.07766">
        <ele>220.28</ele>
        <time>2013-03-03T07:57:51Z</time>
      </trkpt>
      <trkpt lat="44.62991" lon="1.07812">
        <ele>223.64</ele>
        <time>2013-03-03T07:58:05Z</time>
      </trkpt>
      <trkpt lat="44.62976" lon="1.07864">
        <ele>225.57</ele>
        <time>2013-03-03T07:58:20Z</time>
      </trkpt>
      <trkpt lat="44.62957" lon="1.07938">
        <ele>227.01</ele>
        <time>2013-03-03T07:58:40Z</time>
      </trkpt>
      <trkpt lat="44.62952" lon="1.07947">
        <ele>227.01</ele>
        <time>2013-03-03T07:58:43Z</time>
      </trkpt>
      <trkpt lat="44.62938" lon="1.07945">
        <ele>223.16</ele>
        <time>2013-03-03T07:58:49Z</time>
      </trkpt>
      <trkpt lat="44.62909" lon="1.07927">
        <ele>217.4</ele>
        <time>2013-03-03T07:58:59Z</time>
      </trkpt>
      <trkpt lat="44.62893" lon="1.07923">
        <ele>214.99</ele>
        <time>2013-03-03T07:59:03Z</time>
      </trkpt>
      <trkpt lat="44.62881" lon="1.0792">
        <ele>213.55</ele>
        <time>2013-03-03T07:59:05Z</time>
      </trkpt>
      <trkpt lat="44.62858" lon="1.07921">
        <ele>210.67</ele>
        <time>2013-03-03T07:59:14Z</time>
      </trkpt>
      <trkpt lat="44.62838" lon="1.07926">
        <ele>207.78</ele>
        <time>2013-03-03T07:59:19Z</time>
      </trkpt>
      <trkpt lat="44.62794" lon="1.07949">
        <ele>199.13</ele>
        <time>2013-03-03T07:59:30Z</time>
      </trkpt>
      <trkpt lat="44.62754" lon="1.07989">
        <ele>192.4</ele>
        <time>2013-03-03T07:59:39Z</time>
      </trkpt>
      <trkpt lat="44.62659" lon="1.08028">
        <ele>183.75</ele>
        <time>2013-03-03T07:59:50Z</time>
      </trkpt>
      <trkpt lat="44.62584" lon="1.08061">
        <ele>180.87</ele>
        <time>2013-03-03T08:00:01Z</time>
      </trkpt>
      <trkpt lat="44.62568" lon="1.08065">
        <ele>180.38</ele>
        <time>2013-03-03T08:00:04Z</time>
      </trkpt>
      <trkpt lat="44.62553" lon="1.08072">
        <ele>180.87</ele>
        <time>2013-03-03T08:00:07Z</time>
      </trkpt>
      <trkpt lat="44.62544" lon="1.08078">
        <ele>180.87</ele>
        <time>2013-03-03T08:00:09Z</time>
      </trkpt>
      <trkpt lat="44.62522" lon="1.08119">
        <ele>181.35</ele>
        <time>2013-03-03T08:00:20Z</time>
      </trkpt>
      <trkpt lat="44.62523" lon="1.08175">
        <ele>181.35</ele>
        <time>2013-03-03T08:00:33Z</time>
      </trkpt>
      <trkpt lat="44.62531" lon="1.08285">
        <ele>182.79</ele>
        <time>2013-03-03T08:00:54Z</time>
      </trkpt>
      <trkpt lat="44.62537" lon="1.08388">
        <ele>183.75</ele>
        <time>2013-03-03T08:01:14Z</time>
      </trkpt>
      <trkpt lat="44.62515" lon="1.0843">
        <ele>186.15</ele>
        <time>2013-03-03T08:01:26Z</time>
      </trkpt>
      <trkpt lat="44.62486" lon="1.08438">
        <ele>186.63</ele>
        <time>2013-03-03T08:01:35Z</time>
      </trkpt>
      <trkpt lat="44.6248" lon="1.0845">
        <ele>186.63</ele>
        <time>2013-03-03T08:01:39Z</time>
      </trkpt>
      <trkpt lat="44.62458" lon="1.08478">
        <ele>190.48</ele>
        <time>2013-03-03T08:01:51Z</time>
      </trkpt>
      <trkpt lat="44.62443" lon="1.08505">
        <ele>194.8</ele>
        <time>2013-03-03T08:02:04Z</time>
      </trkpt>
      <trkpt lat="44.62426" lon="1.08546">
        <ele>198.17</ele>
        <time>2013-03-03T08:02:19Z</time>
      </trkpt>
      <trkpt lat="44.62413" lon="1.08584">
        <ele>198.65</ele>
        <time>2013-03-03T08:02:32Z</time>
      </trkpt>
      <trkpt lat="44.62401" lon="1.08626">
        <ele>199.61</ele>
        <time>2013-03-03T08:02:47Z</time>
      </trkpt>
      <trkpt lat="44.62381" lon="1.08677">
        <ele>201.53</ele>
        <time>2013-03-03T08:03:03Z</time>
      </trkpt>
      <trkpt lat="44.62379" lon="1.08683">
        <ele>201.53</ele>
        <time>2013-03-03T08:03:05Z</time>
      </trkpt>
      <trkpt lat="44.62367" lon="1.08722">
        <ele>203.46</ele>
        <time>2013-03-03T08:03:17Z</time>
      </trkpt>
      <trkpt lat="44.62363" lon="1.08745">
        <ele>203.46</ele>
        <time>2013-03-03T08:03:24Z</time>
      </trkpt>
      <trkpt lat="44.62373" lon="1.08771">
        <ele>204.9</ele>
        <time>2013-03-03T08:03:37Z</time>
      </trkpt>
      <trkpt lat="44.62373" lon="1.08773">
        <ele>206.82</ele>
        <time>2013-03-03T08:03:48Z</time>
      </trkpt>
      <trkpt lat="44.62373" lon="1.08772">
        <ele>208.74</ele>
        <time>2013-03-03T08:04:07Z</time>
      </trkpt>
      <trkpt lat="44.62371" lon="1.08774">
        <ele>210.19</ele>
        <time>2013-03-03T08:04:34Z</time>
      </trkpt>
      <trkpt lat="44.62372" lon="1.08773">
        <ele>208.26</ele>
        <time>2013-03-03T08:04:58Z</time>
      </trkpt>
      <trkpt lat="44.62373" lon="1.08779">
        <ele>209.7</ele>
        <time>2013-03-03T08:05:02Z</time>
      </trkpt>
      <trkpt lat="44.62369" lon="1.08808">
        <ele>215.47</ele>
        <time>2013-03-03T08:05:15Z</time>
      </trkpt>
      <trkpt lat="44.62359" lon="1.08835">
        <ele>215.95</ele>
        <time>2013-03-03T08:05:27Z</time>
      </trkpt>
      <trkpt lat="44.62343" lon="1.08867">
        <ele>217.4</ele>
        <time>2013-03-03T08:05:40Z</time>
      </trkpt>
      <trkpt lat="44.62317" lon="1.08897">
        <ele>216.91</ele>
        <time>2013-03-03T08:05:53Z</time>
      </trkpt>
      <trkpt lat="44.62287" lon="1.08906">
        <ele>218.36</ele>
        <time>2013-03-03T08:06:05Z</time>
      </trkpt>
      <trkpt lat="44.62254" lon="1.08928">
        <ele>217.88</ele>
        <time>2013-03-03T08:06:19Z</time>
      </trkpt>
      <trkpt lat="44.62219" lon="1.08958">
        <ele>219.8</ele>
        <time>2013-03-03T08:06:35Z</time>
      </trkpt>
      <trkpt lat="44.62203" lon="1.08982">
        <ele>222.2</ele>
        <time>2013-03-03T08:06:46Z</time>
      </trkpt>
      <trkpt lat="44.62195" lon="1.08993">
        <ele>223.64</ele>
        <time>2013-03-03T08:06:52Z</time>
      </trkpt>
      <trkpt lat="44.62184" lon="1.09006">
        <ele>225.57</ele>
        <time>2013-03-03T08:07:01Z</time>
      </trkpt>
      <trkpt lat="44.6218" lon="1.09011">
        <ele>226.53</ele>
        <time>2013-03-03T08:07:05Z</time>
      </trkpt>
      <trkpt lat="44.62171" lon="1.0903">
        <ele>227.01</ele>
        <time>2013-03-03T08:07:16Z</time>
      </trkpt>
      <trkpt lat="44.62162" lon="1.09048">
        <ele>227.01</ele>
        <time>2013-03-03T08:07:29Z</time>
      </trkpt>
      <trkpt lat="44.62161" lon="1.09048">
        <ele>227.01</ele>
        <time>2013-03-03T08:07:30Z</time>
      </trkpt>
      <trkpt lat="44.62156" lon="1.09047">
        <ele>230.37</ele>
        <time>2013-03-03T08:07:34Z</time>
      </trkpt>
      <trkpt lat="44.62152" lon="1.09049">
        <ele>232.3</ele>
        <time>2013-03-03T08:07:37Z</time>
      </trkpt>
      <trkpt lat="44.62139" lon="1.09061">
        <ele>237.1</ele>
        <time>2013-03-03T08:07:49Z</time>
      </trkpt>
      <trkpt lat="44.62136" lon="1.09065">
        <ele>237.58</ele>
        <time>2013-03-03T08:07:52Z</time>
      </trkpt>
      <trkpt lat="44.62126" lon="1.09077">
        <ele>241.43</ele>
        <time>2013-03-03T08:08:02Z</time>
      </trkpt>
      <trkpt lat="44.62115" lon="1.09088">
        <ele>245.27</ele>
        <time>2013-03-03T08:08:12Z</time>
      </trkpt>
      <trkpt lat="44.62101" lon="1.09106">
        <ele>247.2</ele>
        <time>2013-03-03T08:08:27Z</time>
      </trkpt>
      <trkpt lat="44.62092" lon="1.09117">
        <ele>248.16</ele>
        <time>2013-03-03T08:08:35Z</time>
      </trkpt>
      <trkpt lat="44.62088" lon="1.09122">
        <ele>249.12</ele>
        <time>2013-03-03T08:08:39Z</time>
      </trkpt>
      <trkpt lat="44.62071" lon="1.09141">
        <ele>251.52</ele>
        <time>2013-03-03T08:08:54Z</time>
      </trkpt>
      <trkpt lat="44.62056" lon="1.09162">
        <ele>252</ele>
        <time>2013-03-03T08:09:07Z</time>
      </trkpt>
      <trkpt lat="44.62042" lon="1.09185">
        <ele>252</ele>
        <time>2013-03-03T08:09:20Z</time>
      </trkpt>
      <trkpt lat="44.62027" lon="1.09202">
        <ele>251.04</ele>
        <time>2013-03-03T08:09:32Z</time>
      </trkpt>
      <trkpt lat="44.62013" lon="1.0922">
        <ele>252</ele>
        <time>2013-03-03T08:09:43Z</time>
      </trkpt>
      <trkpt lat="44.61989" lon="1.09247">
        <ele>253.44</ele>
        <time>2013-03-03T08:09:58Z</time>
      </trkpt>
      <trkpt lat="44.61973" lon="1.09267">
        <ele>255.37</ele>
        <time>2013-03-03T08:10:09Z</time>
      </trkpt>
      <trkpt lat="44.61957" lon="1.09307">
        <ele>254.89</ele>
        <time>2013-03-03T08:10:24Z</time>
      </trkpt>
      <trkpt lat="44.61948" lon="1.09334">
        <ele>255.37</ele>
        <time>2013-03-03T08:10:34Z</time>
      </trkpt>
      <trkpt lat="44.61937" lon="1.09373">
        <ele>253.93</ele>
        <time>2013-03-03T08:10:49Z</time>
      </trkpt>
      <trkpt lat="44.61928" lon="1.09398">
        <ele>255.37</ele>
        <time>2013-03-03T08:11:01Z</time>
      </trkpt>
      <trkpt lat="44.61925" lon="1.09407">
        <ele>256.81</ele>
        <time>2013-03-03T08:11:05Z</time>
      </trkpt>
      <trkpt lat="44.6191" lon="1.0944">
        <ele>263.06</ele>
        <time>2013-03-03T08:11:20Z</time>
      </trkpt>
      <trkpt lat="44.61906" lon="1.09447">
        <ele>264.98</ele>
        <time>2013-03-03T08:11:24Z</time>
      </trkpt>
      <trkpt lat="44.61901" lon="1.09455">
        <ele>267.38</ele>
        <time>2013-03-03T08:11:29Z</time>
      </trkpt>
      <trkpt lat="44.61894" lon="1.09482">
        <ele>273.63</ele>
        <time>2013-03-03T08:11:43Z</time>
      </trkpt>
      <trkpt lat="44.61881" lon="1.09509">
        <ele>276.04</ele>
        <time>2013-03-03T08:11:56Z</time>
      </trkpt>
      <trkpt lat="44.61868" lon="1.09536">
        <ele>274.59</ele>
        <time>2013-03-03T08:12:10Z</time>
      </trkpt>
      <trkpt lat="44.61854" lon="1.0956">
        <ele>272.19</ele>
        <time>2013-03-03T08:12:25Z</time>
      </trkpt>
      <trkpt lat="44.61842" lon="1.09581">
        <ele>272.19</ele>
        <time>2013-03-03T08:12:38Z</time>
      </trkpt>
      <trkpt lat="44.61837" lon="1.09589">
        <ele>271.23</ele>
        <time>2013-03-03T08:12:46Z</time>
      </trkpt>
      <trkpt lat="44.61825" lon="1.09604">
        <ele>272.19</ele>
        <time>2013-03-03T08:13:00Z</time>
      </trkpt>
      <trkpt lat="44.61824" lon="1.09605">
        <ele>274.11</ele>
        <time>2013-03-03T08:13:27Z</time>
      </trkpt>
      <trkpt lat="44.61822" lon="1.09604">
        <ele>275.56</ele>
        <time>2013-03-03T08:13:47Z</time>
      </trkpt>
      <trkpt lat="44.6182" lon="1.09609">
        <ele>277</ele>
        <time>2013-03-03T08:14:15Z</time>
      </trkpt>
      <trkpt lat="44.61807" lon="1.09639">
        <ele>273.63</ele>
        <time>2013-03-03T08:14:28Z</time>
      </trkpt>
      <trkpt lat="44.61787" lon="1.09679">
        <ele>270.75</ele>
        <time>2013-03-03T08:14:42Z</time>
      </trkpt>
      <trkpt lat="44.61761" lon="1.09729">
        <ele>268.35</ele>
        <time>2013-03-03T08:14:54Z</time>
      </trkpt>
      <trkpt lat="44.61745" lon="1.09753">
        <ele>267.38</ele>
        <time>2013-03-03T08:15:00Z</time>
      </trkpt>
      <trkpt lat="44.61732" lon="1.09777">
        <ele>267.38</ele>
        <time>2013-03-03T08:15:05Z</time>
      </trkpt>
      <trkpt lat="44.61695" lon="1.09849">
        <ele>266.42</ele>
        <time>2013-03-03T08:15:20Z</time>
      </trkpt>
      <trkpt lat="44.61679" lon="1.09881">
        <ele>265.94</ele>
        <time>2013-03-03T08:15:26Z</time>
      </trkpt>
      <trkpt lat="44.6164" lon="1.09961">
        <ele>264.02</ele>
        <time>2013-03-03T08:15:41Z</time>
      </trkpt>
      <trkpt lat="44.61632" lon="1.09977">
        <ele>263.54</ele>
        <time>2013-03-03T08:15:44Z</time>
      </trkpt>
      <trkpt lat="44.61622" lon="1.09997">
        <ele>262.58</ele>
        <time>2013-03-03T08:15:48Z</time>
      </trkpt>
      <trkpt lat="44.61614" lon="1.10015">
        <ele>262.1</ele>
        <time>2013-03-03T08:15:52Z</time>
      </trkpt>
      <trkpt lat="44.61584" lon="1.10066">
        <ele>260.65</ele>
        <time>2013-03-03T08:16:04Z</time>
      </trkpt>
      <trkpt lat="44.61568" lon="1.10088">
        <ele>261.62</ele>
        <time>2013-03-03T08:16:13Z</time>
      </trkpt>
      <trkpt lat="44.61567" lon="1.1009">
        <ele>261.62</ele>
        <time>2013-03-03T08:16:14Z</time>
      </trkpt>
      <trkpt lat="44.61557" lon="1.101">
        <ele>263.54</ele>
        <time>2013-03-03T08:16:21Z</time>
      </trkpt>
      <trkpt lat="44.61536" lon="1.10145">
        <ele>268.83</ele>
        <time>2013-03-03T08:16:36Z</time>
      </trkpt>
      <trkpt lat="44.61532" lon="1.10155">
        <ele>269.31</ele>
        <time>2013-03-03T08:16:39Z</time>
      </trkpt>
      <trkpt lat="44.61527" lon="1.10167">
        <ele>270.27</ele>
        <time>2013-03-03T08:16:43Z</time>
      </trkpt>
      <trkpt lat="44.61501" lon="1.10216">
        <ele>271.71</ele>
        <time>2013-03-03T08:16:59Z</time>
      </trkpt>
      <trkpt lat="44.61485" lon="1.10249">
        <ele>271.71</ele>
        <time>2013-03-03T08:17:11Z</time>
      </trkpt>
      <trkpt lat="44.61471" lon="1.10276">
        <ele>271.71</ele>
        <time>2013-03-03T08:17:21Z</time>
      </trkpt>
      <trkpt lat="44.61456" lon="1.10308">
        <ele>279.4</ele>
        <time>2013-03-03T08:17:33Z</time>
      </trkpt>
      <trkpt lat="44.61438" lon="1.10345">
        <ele>286.13</ele>
        <time>2013-03-03T08:17:48Z</time>
      </trkpt>
      <trkpt lat="44.61429" lon="1.10378">
        <ele>284.21</ele>
        <time>2013-03-03T08:18:00Z</time>
      </trkpt>
      <trkpt lat="44.61424" lon="1.10416">
        <ele>281.32</ele>
        <time>2013-03-03T08:18:12Z</time>
      </trkpt>
      <trkpt lat="44.61422" lon="1.10448">
        <ele>280.36</ele>
        <time>2013-03-03T08:18:23Z</time>
      </trkpt>
      <trkpt lat="44.61421" lon="1.10455">
        <ele>280.36</ele>
        <time>2013-03-03T08:18:25Z</time>
      </trkpt>
      <trkpt lat="44.61414" lon="1.10497">
        <ele>277.48</ele>
        <time>2013-03-03T08:18:38Z</time>
      </trkpt>
      <trkpt lat="44.61406" lon="1.10534">
        <ele>277.48</ele>
        <time>2013-03-03T08:18:50Z</time>
      </trkpt>
      <trkpt lat="44.61402" lon="1.10546">
        <ele>278.44</ele>
        <time>2013-03-03T08:18:56Z</time>
      </trkpt>
      <trkpt lat="44.61399" lon="1.1055">
        <ele>277.96</ele>
        <time>2013-03-03T08:18:59Z</time>
      </trkpt>
      <trkpt lat="44.61399" lon="1.10567">
        <ele>277</ele>
        <time>2013-03-03T08:19:06Z</time>
      </trkpt>
      <trkpt lat="44.61401" lon="1.10581">
        <ele>277</ele>
        <time>2013-03-03T08:19:11Z</time>
      </trkpt>
      <trkpt lat="44.61411" lon="1.10637">
        <ele>275.07</ele>
        <time>2013-03-03T08:19:22Z</time>
      </trkpt>
      <trkpt lat="44.61421" lon="1.1068">
        <ele>274.59</ele>
        <time>2013-03-03T08:19:32Z</time>
      </trkpt>
      <trkpt lat="44.61432" lon="1.10721">
        <ele>274.59</ele>
        <time>2013-03-03T08:19:45Z</time>
      </trkpt>
      <trkpt lat="44.6144" lon="1.10763">
        <ele>271.71</ele>
        <time>2013-03-03T08:19:58Z</time>
      </trkpt>
      <trkpt lat="44.61453" lon="1.1082">
        <ele>270.75</ele>
        <time>2013-03-03T08:20:11Z</time>
      </trkpt>
      <trkpt lat="44.61462" lon="1.10863">
        <ele>268.83</ele>
        <time>2013-03-03T08:20:21Z</time>
      </trkpt>
      <trkpt lat="44.61471" lon="1.10912">
        <ele>266.42</ele>
        <time>2013-03-03T08:20:32Z</time>
      </trkpt>
      <trkpt lat="44.61486" lon="1.10963">
        <ele>264.98</ele>
        <time>2013-03-03T08:20:43Z</time>
      </trkpt>
      <trkpt lat="44.61504" lon="1.11021">
        <ele>264.5</ele>
        <time>2013-03-03T08:20:55Z</time>
      </trkpt>
      <trkpt lat="44.6153" lon="1.11081">
        <ele>264.98</ele>
        <time>2013-03-03T08:21:10Z</time>
      </trkpt>
      <trkpt lat="44.61551" lon="1.11145">
        <ele>267.86</ele>
        <time>2013-03-03T08:21:25Z</time>
      </trkpt>
      <trkpt lat="44.61558" lon="1.11186">
        <ele>267.86</ele>
        <time>2013-03-03T08:21:34Z</time>
      </trkpt>
      <trkpt lat="44.61564" lon="1.1125">
        <ele>267.38</ele>
        <time>2013-03-03T08:21:46Z</time>
      </trkpt>
      <trkpt lat="44.61551" lon="1.11297">
        <ele>266.42</ele>
        <time>2013-03-03T08:21:55Z</time>
      </trkpt>
      <trkpt lat="44.61546" lon="1.11352">
        <ele>264.98</ele>
        <time>2013-03-03T08:22:03Z</time>
      </trkpt>
      <trkpt lat="44.61538" lon="1.11366">
        <ele>264.02</ele>
        <time>2013-03-03T08:22:05Z</time>
      </trkpt>
      <trkpt lat="44.61525" lon="1.11388">
        <ele>262.58</ele>
        <time>2013-03-03T08:22:08Z</time>
      </trkpt>
      <trkpt lat="44.6151" lon="1.11418">
        <ele>261.14</ele>
        <time>2013-03-03T08:22:12Z</time>
      </trkpt>
      <trkpt lat="44.61496" lon="1.11441">
        <ele>260.65</ele>
        <time>2013-03-03T08:22:15Z</time>
      </trkpt>
      <trkpt lat="44.61485" lon="1.11462">
        <ele>260.17</ele>
        <time>2013-03-03T08:22:18Z</time>
      </trkpt>
      <trkpt lat="44.61464" lon="1.11503">
        <ele>259.21</ele>
        <time>2013-03-03T08:22:25Z</time>
      </trkpt>
      <trkpt lat="44.61436" lon="1.11544">
        <ele>262.58</ele>
        <time>2013-03-03T08:22:36Z</time>
      </trkpt>
      <trkpt lat="44.61416" lon="1.11578">
        <ele>264.98</ele>
        <time>2013-03-03T08:22:46Z</time>
      </trkpt>
      <trkpt lat="44.61406" lon="1.11602">
        <ele>267.38</ele>
        <time>2013-03-03T08:22:53Z</time>
      </trkpt>
      <trkpt lat="44.61395" lon="1.11634">
        <ele>274.11</ele>
        <time>2013-03-03T08:23:06Z</time>
      </trkpt>
      <trkpt lat="44.61389" lon="1.11648">
        <ele>274.59</ele>
        <time>2013-03-03T08:23:13Z</time>
      </trkpt>
      <trkpt lat="44.61387" lon="1.11657">
        <ele>274.11</ele>
        <time>2013-03-03T08:23:15Z</time>
      </trkpt>
      <trkpt lat="44.61397" lon="1.11707">
        <ele>275.07</ele>
        <time>2013-03-03T08:23:24Z</time>
      </trkpt>
      <trkpt lat="44.61399" lon="1.11719">
        <ele>275.56</ele>
        <time>2013-03-03T08:23:26Z</time>
      </trkpt>
      <trkpt lat="44.61402" lon="1.1179">
        <ele>273.63</ele>
        <time>2013-03-03T08:23:35Z</time>
      </trkpt>
      <trkpt lat="44.61405" lon="1.11819">
        <ele>271.71</ele>
        <time>2013-03-03T08:23:38Z</time>
      </trkpt>
      <trkpt lat="44.61411" lon="1.11849">
        <ele>269.79</ele>
        <time>2013-03-03T08:23:41Z</time>
      </trkpt>
      <trkpt lat="44.61421" lon="1.11876">
        <ele>268.83</ele>
        <time>2013-03-03T08:23:44Z</time>
      </trkpt>
      <trkpt lat="44.61428" lon="1.11911">
        <ele>266.9</ele>
        <time>2013-03-03T08:23:48Z</time>
      </trkpt>
      <trkpt lat="44.6143" lon="1.11936">
        <ele>263.54</ele>
        <time>2013-03-03T08:23:56Z</time>
      </trkpt>
      <trkpt lat="44.61434" lon="1.11975">
        <ele>260.65</ele>
        <time>2013-03-03T08:24:07Z</time>
      </trkpt>
      <trkpt lat="44.61436" lon="1.11987">
        <ele>260.17</ele>
        <time>2013-03-03T08:24:10Z</time>
      </trkpt>
      <trkpt lat="44.61436" lon="1.12002">
        <ele>259.69</ele>
        <time>2013-03-03T08:24:14Z</time>
      </trkpt>
      <trkpt lat="44.61441" lon="1.12039">
        <ele>259.21</ele>
        <time>2013-03-03T08:24:24Z</time>
      </trkpt>
      <trkpt lat="44.61454" lon="1.12086">
        <ele>262.1</ele>
        <time>2013-03-03T08:24:35Z</time>
      </trkpt>
      <trkpt lat="44.61472" lon="1.12128">
        <ele>262.1</ele>
        <time>2013-03-03T08:24:42Z</time>
      </trkpt>
      <trkpt lat="44.61479" lon="1.12139">
        <ele>262.1</ele>
        <time>2013-03-03T08:24:44Z</time>
      </trkpt>
      <trkpt lat="44.61491" lon="1.12161">
        <ele>261.62</ele>
        <time>2013-03-03T08:24:49Z</time>
      </trkpt>
      <trkpt lat="44.61525" lon="1.12203">
        <ele>262.1</ele>
        <time>2013-03-03T08:25:02Z</time>
      </trkpt>
      <trkpt lat="44.61553" lon="1.12232">
        <ele>266.42</ele>
        <time>2013-03-03T08:25:14Z</time>
      </trkpt>
      <trkpt lat="44.61582" lon="1.12266">
        <ele>268.35</ele>
        <time>2013-03-03T08:25:23Z</time>
      </trkpt>
      <trkpt lat="44.6159" lon="1.12275">
        <ele>267.86</ele>
        <time>2013-03-03T08:25:25Z</time>
      </trkpt>
      <trkpt lat="44.61602" lon="1.123">
        <ele>265.94</ele>
        <time>2013-03-03T08:25:29Z</time>
      </trkpt>
      <trkpt lat="44.61605" lon="1.12316">
        <ele>263.54</ele>
        <time>2013-03-03T08:25:31Z</time>
      </trkpt>
      <trkpt lat="44.61608" lon="1.1234">
        <ele>261.14</ele>
        <time>2013-03-03T08:25:34Z</time>
      </trkpt>
      <trkpt lat="44.6162" lon="1.12387">
        <ele>258.25</ele>
        <time>2013-03-03T08:25:42Z</time>
      </trkpt>
      <trkpt lat="44.61622" lon="1.12389">
        <ele>257.77</ele>
        <time>2013-03-03T08:25:43Z</time>
      </trkpt>
      <trkpt lat="44.61661" lon="1.12437">
        <ele>256.33</ele>
        <time>2013-03-03T08:25:57Z</time>
      </trkpt>
      <trkpt lat="44.61698" lon="1.12513">
        <ele>256.33</ele>
        <time>2013-03-03T08:26:13Z</time>
      </trkpt>
      <trkpt lat="44.61714" lon="1.12553">
        <ele>255.37</ele>
        <time>2013-03-03T08:26:21Z</time>
      </trkpt>
      <trkpt lat="44.61751" lon="1.12625">
        <ele>255.37</ele>
        <time>2013-03-03T08:26:37Z</time>
      </trkpt>
      <trkpt lat="44.61775" lon="1.12661">
        <ele>253.93</ele>
        <time>2013-03-03T08:26:49Z</time>
      </trkpt>
      <trkpt lat="44.61802" lon="1.127">
        <ele>251.04</ele>
        <time>2013-03-03T08:26:57Z</time>
      </trkpt>
      <trkpt lat="44.61841" lon="1.12739">
        <ele>250.56</ele>
        <time>2013-03-03T08:27:09Z</time>
      </trkpt>
      <trkpt lat="44.6189" lon="1.12764">
        <ele>254.41</ele>
        <time>2013-03-03T08:27:23Z</time>
      </trkpt>
      <trkpt lat="44.61915" lon="1.12775">
        <ele>255.85</ele>
        <time>2013-03-03T08:27:30Z</time>
      </trkpt>
      <trkpt lat="44.61966" lon="1.12803">
        <ele>256.81</ele>
        <time>2013-03-03T08:27:44Z</time>
      </trkpt>
      <trkpt lat="44.61996" lon="1.12817">
        <ele>257.77</ele>
        <time>2013-03-03T08:27:51Z</time>
      </trkpt>
      <trkpt lat="44.62052" lon="1.12845">
        <ele>261.14</ele>
        <time>2013-03-03T08:28:06Z</time>
      </trkpt>
      <trkpt lat="44.62098" lon="1.12865">
        <ele>262.58</ele>
        <time>2013-03-03T08:28:19Z</time>
      </trkpt>
      <trkpt lat="44.62112" lon="1.12871">
        <ele>264.5</ele>
        <time>2013-03-03T08:28:25Z</time>
      </trkpt>
      <trkpt lat="44.62126" lon="1.12878">
        <ele>264.5</ele>
        <time>2013-03-03T08:28:32Z</time>
      </trkpt>
      <trkpt lat="44.62162" lon="1.129">
        <ele>266.42</ele>
        <time>2013-03-03T08:28:49Z</time>
      </trkpt>
      <trkpt lat="44.62198" lon="1.12912">
        <ele>267.38</ele>
        <time>2013-03-03T08:29:03Z</time>
      </trkpt>
      <trkpt lat="44.62238" lon="1.12929">
        <ele>269.79</ele>
        <time>2013-03-03T08:29:19Z</time>
      </trkpt>
      <trkpt lat="44.6228" lon="1.12949">
        <ele>272.19</ele>
        <time>2013-03-03T08:29:37Z</time>
      </trkpt>
      <trkpt lat="44.62296" lon="1.12983">
        <ele>273.15</ele>
        <time>2013-03-03T08:29:51Z</time>
      </trkpt>
      <trkpt lat="44.62307" lon="1.13023">
        <ele>276.04</ele>
        <time>2013-03-03T08:30:05Z</time>
      </trkpt>
      <trkpt lat="44.62325" lon="1.13026">
        <ele>275.56</ele>
        <time>2013-03-03T08:30:17Z</time>
      </trkpt>
      <trkpt lat="44.62344" lon="1.13025">
        <ele>277.48</ele>
        <time>2013-03-03T08:30:31Z</time>
      </trkpt>
      <trkpt lat="44.62346" lon="1.13024">
        <ele>278.44</ele>
        <time>2013-03-03T08:30:49Z</time>
      </trkpt>
      <trkpt lat="44.62346" lon="1.13024">
        <ele>278.92</ele>
        <time>2013-03-03T08:31:16Z</time>
      </trkpt>
      <trkpt lat="44.62346" lon="1.13027">
        <ele>279.4</ele>
        <time>2013-03-03T08:31:45Z</time>
      </trkpt>
      <trkpt lat="44.6236" lon="1.13019">
        <ele>281.32</ele>
        <time>2013-03-03T08:31:58Z</time>
      </trkpt>
      <trkpt lat="44.62386" lon="1.13008">
        <ele>281.8</ele>
        <time>2013-03-03T08:32:06Z</time>
      </trkpt>
      <trkpt lat="44.62398" lon="1.12985">
        <ele>281.32</ele>
        <time>2013-03-03T08:32:10Z</time>
      </trkpt>
      <trkpt lat="44.62418" lon="1.12926">
        <ele>278.92</ele>
        <time>2013-03-03T08:32:20Z</time>
      </trkpt>
      <trkpt lat="44.62457" lon="1.12835">
        <ele>272.19</ele>
        <time>2013-03-03T08:32:35Z</time>
      </trkpt>
      <trkpt lat="44.62475" lon="1.12845">
        <ele>269.31</ele>
        <time>2013-03-03T08:32:41Z</time>
      </trkpt>
      <trkpt lat="44.62496" lon="1.12871">
        <ele>267.38</ele>
        <time>2013-03-03T08:32:46Z</time>
      </trkpt>
      <trkpt lat="44.62534" lon="1.12911">
        <ele>261.62</ele>
        <time>2013-03-03T08:32:54Z</time>
      </trkpt>
      <trkpt lat="44.62549" lon="1.12907">
        <ele>259.69</ele>
        <time>2013-03-03T08:32:56Z</time>
      </trkpt>
      <trkpt lat="44.62591" lon="1.12897">
        <ele>254.89</ele>
        <time>2013-03-03T08:33:02Z</time>
      </trkpt>
      <trkpt lat="44.62616" lon="1.12899">
        <ele>252.48</ele>
        <time>2013-03-03T08:33:06Z</time>
      </trkpt>
      <trkpt lat="44.62632" lon="1.12902">
        <ele>252</ele>
        <time>2013-03-03T08:33:09Z</time>
      </trkpt>
      <trkpt lat="44.62667" lon="1.12913">
        <ele>250.08</ele>
        <time>2013-03-03T08:33:16Z</time>
      </trkpt>
      <trkpt lat="44.62681" lon="1.12917">
        <ele>250.56</ele>
        <time>2013-03-03T08:33:19Z</time>
      </trkpt>
      <trkpt lat="44.62694" lon="1.12925">
        <ele>251.04</ele>
        <time>2013-03-03T08:33:22Z</time>
      </trkpt>
      <trkpt lat="44.62735" lon="1.12967">
        <ele>254.41</ele>
        <time>2013-03-03T08:33:34Z</time>
      </trkpt>
      <trkpt lat="44.62756" lon="1.1298">
        <ele>256.81</ele>
        <time>2013-03-03T08:33:40Z</time>
      </trkpt>
      <trkpt lat="44.62772" lon="1.12973">
        <ele>257.29</ele>
        <time>2013-03-03T08:33:45Z</time>
      </trkpt>
      <trkpt lat="44.62814" lon="1.12963">
        <ele>259.21</ele>
        <time>2013-03-03T08:33:58Z</time>
      </trkpt>
      <trkpt lat="44.62851" lon="1.12984">
        <ele>262.58</ele>
        <time>2013-03-03T08:34:12Z</time>
      </trkpt>
      <trkpt lat="44.62853" lon="1.12985">
        <ele>262.58</ele>
        <time>2013-03-03T08:34:13Z</time>
      </trkpt>
      <trkpt lat="44.62879" lon="1.1302">
        <ele>264.02</ele>
        <time>2013-03-03T08:34:30Z</time>
      </trkpt>
      <trkpt lat="44.62908" lon="1.13052">
        <ele>264.98</ele>
        <time>2013-03-03T08:34:46Z</time>
      </trkpt>
      <trkpt lat="44.62931" lon="1.13077">
        <ele>265.94</ele>
        <time>2013-03-03T08:34:58Z</time>
      </trkpt>
      <trkpt lat="44.62942" lon="1.13078">
        <ele>265.46</ele>
        <time>2013-03-03T08:35:03Z</time>
      </trkpt>
      <trkpt lat="44.62968" lon="1.13048">
        <ele>264.02</ele>
        <time>2013-03-03T08:35:17Z</time>
      </trkpt>
      <trkpt lat="44.62994" lon="1.13018">
        <ele>264.02</ele>
        <time>2013-03-03T08:35:31Z</time>
      </trkpt>
      <trkpt lat="44.63022" lon="1.12974">
        <ele>261.62</ele>
        <time>2013-03-03T08:35:43Z</time>
      </trkpt>
      <trkpt lat="44.63043" lon="1.12902">
        <ele>262.58</ele>
        <time>2013-03-03T08:35:58Z</time>
      </trkpt>
      <trkpt lat="44.63066" lon="1.12827">
        <ele>263.54</ele>
        <time>2013-03-03T08:36:14Z</time>
      </trkpt>
      <trkpt lat="44.63106" lon="1.12769">
        <ele>265.94</ele>
        <time>2013-03-03T08:36:30Z</time>
      </trkpt>
      <trkpt lat="44.63136" lon="1.12695">
        <ele>267.86</ele>
        <time>2013-03-03T08:36:47Z</time>
      </trkpt>
      <trkpt lat="44.63154" lon="1.12628">
        <ele>268.35</ele>
        <time>2013-03-03T08:37:01Z</time>
      </trkpt>
      <trkpt lat="44.63161" lon="1.12571">
        <ele>267.38</ele>
        <time>2013-03-03T08:37:13Z</time>
      </trkpt>
      <trkpt lat="44.63157" lon="1.12553">
        <ele>268.35</ele>
        <time>2013-03-03T08:37:16Z</time>
      </trkpt>
      <trkpt lat="44.63153" lon="1.12531">
        <ele>268.83</ele>
        <time>2013-03-03T08:37:19Z</time>
      </trkpt>
      <trkpt lat="44.63148" lon="1.12516">
        <ele>268.83</ele>
        <time>2013-03-03T08:37:21Z</time>
      </trkpt>
      <trkpt lat="44.63156" lon="1.12451">
        <ele>267.86</ele>
        <time>2013-03-03T08:37:29Z</time>
      </trkpt>
      <trkpt lat="44.63158" lon="1.12445">
        <ele>267.38</ele>
        <time>2013-03-03T08:37:30Z</time>
      </trkpt>
      <trkpt lat="44.63173" lon="1.12399">
        <ele>263.06</ele>
        <time>2013-03-03T08:37:37Z</time>
      </trkpt>
      <trkpt lat="44.63181" lon="1.12363">
        <ele>260.65</ele>
        <time>2013-03-03T08:37:41Z</time>
      </trkpt>
      <trkpt lat="44.6319" lon="1.12334">
        <ele>258.25</ele>
        <time>2013-03-03T08:37:44Z</time>
      </trkpt>
      <trkpt lat="44.6321" lon="1.1227">
        <ele>252.96</ele>
        <time>2013-03-03T08:37:52Z</time>
      </trkpt>
      <trkpt lat="44.63227" lon="1.12252">
        <ele>252</ele>
        <time>2013-03-03T08:37:56Z</time>
      </trkpt>
      <trkpt lat="44.63246" lon="1.12241">
        <ele>251.52</ele>
        <time>2013-03-03T08:38:00Z</time>
      </trkpt>
      <trkpt lat="44.6327" lon="1.12194">
        <ele>255.37</ele>
        <time>2013-03-03T08:38:09Z</time>
      </trkpt>
      <trkpt lat="44.63294" lon="1.12141">
        <ele>257.29</ele>
        <time>2013-03-03T08:38:18Z</time>
      </trkpt>
      <trkpt lat="44.63308" lon="1.12136">
        <ele>256.81</ele>
        <time>2013-03-03T08:38:23Z</time>
      </trkpt>
      <trkpt lat="44.63327" lon="1.12173">
        <ele>256.81</ele>
        <time>2013-03-03T08:38:31Z</time>
      </trkpt>
      <trkpt lat="44.63335" lon="1.12217">
        <ele>256.33</ele>
        <time>2013-03-03T08:38:37Z</time>
      </trkpt>
      <trkpt lat="44.63339" lon="1.12262">
        <ele>256.81</ele>
        <time>2013-03-03T08:38:42Z</time>
      </trkpt>
      <trkpt lat="44.63339" lon="1.1228">
        <ele>256.33</ele>
        <time>2013-03-03T08:38:44Z</time>
      </trkpt>
      <trkpt lat="44.63349" lon="1.12366">
        <ele>253.44</ele>
        <time>2013-03-03T08:38:53Z</time>
      </trkpt>
      <trkpt lat="44.63387" lon="1.12502">
        <ele>250.08</ele>
        <time>2013-03-03T08:39:08Z</time>
      </trkpt>
      <trkpt lat="44.634" lon="1.12532">
        <ele>249.6</ele>
        <time>2013-03-03T08:39:12Z</time>
      </trkpt>
      <trkpt lat="44.63409" lon="1.12562">
        <ele>249.6</ele>
        <time>2013-03-03T08:39:16Z</time>
      </trkpt>
      <trkpt lat="44.63444" lon="1.12655">
        <ele>249.6</ele>
        <time>2013-03-03T08:39:30Z</time>
      </trkpt>
      <trkpt lat="44.63464" lon="1.12762">
        <ele>253.93</ele>
        <time>2013-03-03T08:39:45Z</time>
      </trkpt>
      <trkpt lat="44.63467" lon="1.12808">
        <ele>255.37</ele>
        <time>2013-03-03T08:39:51Z</time>
      </trkpt>
      <trkpt lat="44.63482" lon="1.12873">
        <ele>256.81</ele>
        <time>2013-03-03T08:40:04Z</time>
      </trkpt>
      <trkpt lat="44.63494" lon="1.12915">
        <ele>255.85</ele>
        <time>2013-03-03T08:40:15Z</time>
      </trkpt>
      <trkpt lat="44.63514" lon="1.12998">
        <ele>255.85</ele>
        <time>2013-03-03T08:40:28Z</time>
      </trkpt>
      <trkpt lat="44.63524" lon="1.1306">
        <ele>255.85</ele>
        <time>2013-03-03T08:40:39Z</time>
      </trkpt>
      <trkpt lat="44.63533" lon="1.13158">
        <ele>252</ele>
        <time>2013-03-03T08:40:51Z</time>
      </trkpt>
      <trkpt lat="44.63534" lon="1.13184">
        <ele>251.04</ele>
        <time>2013-03-03T08:40:54Z</time>
      </trkpt>
      <trkpt lat="44.63531" lon="1.13237">
        <ele>248.64</ele>
        <time>2013-03-03T08:41:01Z</time>
      </trkpt>
      <trkpt lat="44.6352" lon="1.13306">
        <ele>246.23</ele>
        <time>2013-03-03T08:41:11Z</time>
      </trkpt>
      <trkpt lat="44.63516" lon="1.13327">
        <ele>245.75</ele>
        <time>2013-03-03T08:41:14Z</time>
      </trkpt>
      <trkpt lat="44.63513" lon="1.13355">
        <ele>245.75</ele>
        <time>2013-03-03T08:41:18Z</time>
      </trkpt>
      <trkpt lat="44.63512" lon="1.134">
        <ele>246.23</ele>
        <time>2013-03-03T08:41:25Z</time>
      </trkpt>
      <trkpt lat="44.63513" lon="1.13412">
        <ele>246.23</ele>
        <time>2013-03-03T08:41:27Z</time>
      </trkpt>
      <trkpt lat="44.63529" lon="1.13503">
        <ele>247.68</ele>
        <time>2013-03-03T08:41:42Z</time>
      </trkpt>
      <trkpt lat="44.63538" lon="1.13545">
        <ele>249.6</ele>
        <time>2013-03-03T08:41:49Z</time>
      </trkpt>
      <trkpt lat="44.63553" lon="1.13627">
        <ele>252.48</ele>
        <time>2013-03-03T08:42:03Z</time>
      </trkpt>
      <trkpt lat="44.63568" lon="1.13709">
        <ele>255.85</ele>
        <time>2013-03-03T08:42:20Z</time>
      </trkpt>
      <trkpt lat="44.63587" lon="1.1373">
        <ele>256.33</ele>
        <time>2013-03-03T08:42:31Z</time>
      </trkpt>
      <trkpt lat="44.63613" lon="1.13748">
        <ele>258.25</ele>
        <time>2013-03-03T08:42:43Z</time>
      </trkpt>
      <trkpt lat="44.63646" lon="1.1374">
        <ele>265.46</ele>
        <time>2013-03-03T08:42:58Z</time>
      </trkpt>
      <trkpt lat="44.63676" lon="1.13696">
        <ele>266.42</ele>
        <time>2013-03-03T08:43:14Z</time>
      </trkpt>
      <trkpt lat="44.63704" lon="1.13648">
        <ele>268.35</ele>
        <time>2013-03-03T08:43:30Z</time>
      </trkpt>
      <trkpt lat="44.63731" lon="1.13593">
        <ele>274.11</ele>
        <time>2013-03-03T08:43:48Z</time>
      </trkpt>
      <trkpt lat="44.63756" lon="1.13534">
        <ele>277</ele>
        <time>2013-03-03T08:44:06Z</time>
      </trkpt>
      <trkpt lat="44.63785" lon="1.13475">
        <ele>277</ele>
        <time>2013-03-03T08:44:23Z</time>
      </trkpt>
      <trkpt lat="44.63816" lon="1.13452">
        <ele>276.04</ele>
        <time>2013-03-03T08:44:34Z</time>
      </trkpt>
      <trkpt lat="44.63852" lon="1.13444">
        <ele>277.48</ele>
        <time>2013-03-03T08:44:46Z</time>
      </trkpt>
      <trkpt lat="44.63894" lon="1.13446">
        <ele>281.32</ele>
        <time>2013-03-03T08:45:00Z</time>
      </trkpt>
      <trkpt lat="44.63938" lon="1.13439">
        <ele>284.21</ele>
        <time>2013-03-03T08:45:14Z</time>
      </trkpt>
      <trkpt lat="44.63988" lon="1.13412">
        <ele>287.09</ele>
        <time>2013-03-03T08:45:28Z</time>
      </trkpt>
      <trkpt lat="44.64036" lon="1.13359">
        <ele>289.97</ele>
        <time>2013-03-03T08:45:43Z</time>
      </trkpt>
      <trkpt lat="44.64067" lon="1.13298">
        <ele>288.53</ele>
        <time>2013-03-03T08:45:56Z</time>
      </trkpt>
      <trkpt lat="44.6407" lon="1.13293">
        <ele>288.53</ele>
        <time>2013-03-03T08:45:57Z</time>
      </trkpt>
      <trkpt lat="44.64103" lon="1.13203">
        <ele>284.21</ele>
        <time>2013-03-03T08:46:14Z</time>
      </trkpt>
      <trkpt lat="44.64105" lon="1.13198">
        <ele>284.21</ele>
        <time>2013-03-03T08:46:15Z</time>
      </trkpt>
      <trkpt lat="44.64133" lon="1.13116">
        <ele>281.8</ele>
        <time>2013-03-03T08:46:31Z</time>
      </trkpt>
      <trkpt lat="44.64169" lon="1.13047">
        <ele>280.84</ele>
        <time>2013-03-03T08:46:46Z</time>
      </trkpt>
      <trkpt lat="44.64183" lon="1.13028">
        <ele>280.36</ele>
        <time>2013-03-03T08:46:50Z</time>
      </trkpt>
      <trkpt lat="44.64206" lon="1.13006">
        <ele>280.84</ele>
        <time>2013-03-03T08:46:55Z</time>
      </trkpt>
      <trkpt lat="44.64215" lon="1.12999">
        <ele>280.84</ele>
        <time>2013-03-03T08:46:57Z</time>
      </trkpt>
      <trkpt lat="44.64237" lon="1.1298">
        <ele>282.77</ele>
        <time>2013-03-03T08:47:02Z</time>
      </trkpt>
      <trkpt lat="44.64244" lon="1.12969">
        <ele>283.25</ele>
        <time>2013-03-03T08:47:04Z</time>
      </trkpt>
      <trkpt lat="44.6425" lon="1.12959">
        <ele>283.25</ele>
        <time>2013-03-03T08:47:06Z</time>
      </trkpt>
      <trkpt lat="44.64282" lon="1.12873">
        <ele>278.92</ele>
        <time>2013-03-03T08:47:22Z</time>
      </trkpt>
      <trkpt lat="44.643" lon="1.12832">
        <ele>275.56</ele>
        <time>2013-03-03T08:47:29Z</time>
      </trkpt>
      <trkpt lat="44.64307" lon="1.12813">
        <ele>274.59</ele>
        <time>2013-03-03T08:47:32Z</time>
      </trkpt>
      <trkpt lat="44.64321" lon="1.12773">
        <ele>273.63</ele>
        <time>2013-03-03T08:47:39Z</time>
      </trkpt>
      <trkpt lat="44.64333" lon="1.12726">
        <ele>272.67</ele>
        <time>2013-03-03T08:47:46Z</time>
      </trkpt>
      <trkpt lat="44.64339" lon="1.12705">
        <ele>272.19</ele>
        <time>2013-03-03T08:47:49Z</time>
      </trkpt>
      <trkpt lat="44.64343" lon="1.12692">
        <ele>271.23</ele>
        <time>2013-03-03T08:47:51Z</time>
      </trkpt>
      <trkpt lat="44.64358" lon="1.12672">
        <ele>269.31</ele>
        <time>2013-03-03T08:47:55Z</time>
      </trkpt>
      <trkpt lat="44.64372" lon="1.12654">
        <ele>269.79</ele>
        <time>2013-03-03T08:47:59Z</time>
      </trkpt>
      <trkpt lat="44.64386" lon="1.12635">
        <ele>270.27</ele>
        <time>2013-03-03T08:48:03Z</time>
      </trkpt>
      <trkpt lat="44.64402" lon="1.12615">
        <ele>270.75</ele>
        <time>2013-03-03T08:48:07Z</time>
      </trkpt>
      <trkpt lat="44.64417" lon="1.12588">
        <ele>269.79</ele>
        <time>2013-03-03T08:48:11Z</time>
      </trkpt>
      <trkpt lat="44.6443" lon="1.12548">
        <ele>268.35</ele>
        <time>2013-03-03T08:48:15Z</time>
      </trkpt>
      <trkpt lat="44.64459" lon="1.12503">
        <ele>265.94</ele>
        <time>2013-03-03T08:48:20Z</time>
      </trkpt>
      <trkpt lat="44.64473" lon="1.12491">
        <ele>264.98</ele>
        <time>2013-03-03T08:48:22Z</time>
      </trkpt>
      <trkpt lat="44.64498" lon="1.12454">
        <ele>264.02</ele>
        <time>2013-03-03T08:48:27Z</time>
      </trkpt>
      <trkpt lat="44.64504" lon="1.12438">
        <ele>263.06</ele>
        <time>2013-03-03T08:48:29Z</time>
      </trkpt>
      <trkpt lat="44.6451" lon="1.12422">
        <ele>262.58</ele>
        <time>2013-03-03T08:48:31Z</time>
      </trkpt>
      <trkpt lat="44.6456" lon="1.1232">
        <ele>258.73</ele>
        <time>2013-03-03T08:48:44Z</time>
      </trkpt>
      <trkpt lat="44.64579" lon="1.12295">
        <ele>258.25</ele>
        <time>2013-03-03T08:48:48Z</time>
      </trkpt>
      <trkpt lat="44.64591" lon="1.12285">
        <ele>258.25</ele>
        <time>2013-03-03T08:48:51Z</time>
      </trkpt>
      <trkpt lat="44.64609" lon="1.12258">
        <ele>259.21</ele>
        <time>2013-03-03T08:48:56Z</time>
      </trkpt>
      <trkpt lat="44.64641" lon="1.12207">
        <ele>258.25</ele>
        <time>2013-03-03T08:49:02Z</time>
      </trkpt>
      <trkpt lat="44.64669" lon="1.12172">
        <ele>258.25</ele>
        <time>2013-03-03T08:49:07Z</time>
      </trkpt>
      <trkpt lat="44.64733" lon="1.12126">
        <ele>259.21</ele>
        <time>2013-03-03T08:49:19Z</time>
      </trkpt>
      <trkpt lat="44.64742" lon="1.12119">
        <ele>259.21</ele>
        <time>2013-03-03T08:49:21Z</time>
      </trkpt>
      <trkpt lat="44.64752" lon="1.12113">
        <ele>259.69</ele>
        <time>2013-03-03T08:49:23Z</time>
      </trkpt>
      <trkpt lat="44.64785" lon="1.12078">
        <ele>259.21</ele>
        <time>2013-03-03T08:49:33Z</time>
      </trkpt>
      <trkpt lat="44.64795" lon="1.12065">
        <ele>259.21</ele>
        <time>2013-03-03T08:49:36Z</time>
      </trkpt>
      <trkpt lat="44.64841" lon="1.12019">
        <ele>259.69</ele>
        <time>2013-03-03T08:49:46Z</time>
      </trkpt>
      <trkpt lat="44.64923" lon="1.11925">
        <ele>258.25</ele>
        <time>2013-03-03T08:49:59Z</time>
      </trkpt>
      <trkpt lat="44.64969" lon="1.1186">
        <ele>258.25</ele>
        <time>2013-03-03T08:50:11Z</time>
      </trkpt>
      <trkpt lat="44.6498" lon="1.11844">
        <ele>258.25</ele>
        <time>2013-03-03T08:50:14Z</time>
      </trkpt>
      <trkpt lat="44.64992" lon="1.11825">
        <ele>258.25</ele>
        <time>2013-03-03T08:50:17Z</time>
      </trkpt>
      <trkpt lat="44.65011" lon="1.11791">
        <ele>255.85</ele>
        <time>2013-03-03T08:50:22Z</time>
      </trkpt>
      <trkpt lat="44.65039" lon="1.11725">
        <ele>251.52</ele>
        <time>2013-03-03T08:50:31Z</time>
      </trkpt>
      <trkpt lat="44.65091" lon="1.1167">
        <ele>250.08</ele>
        <time>2013-03-03T08:50:41Z</time>
      </trkpt>
      <trkpt lat="44.65115" lon="1.11629">
        <ele>250.08</ele>
        <time>2013-03-03T08:50:46Z</time>
      </trkpt>
      <trkpt lat="44.6513" lon="1.11593">
        <ele>248.64</ele>
        <time>2013-03-03T08:50:49Z</time>
      </trkpt>
      <trkpt lat="44.65177" lon="1.1155">
        <ele>245.27</ele>
        <time>2013-03-03T08:50:55Z</time>
      </trkpt>
      <trkpt lat="44.65248" lon="1.11467">
        <ele>238.54</ele>
        <time>2013-03-03T08:51:04Z</time>
      </trkpt>
      <trkpt lat="44.65277" lon="1.1144">
        <ele>233.74</ele>
        <time>2013-03-03T08:51:08Z</time>
      </trkpt>
      <trkpt lat="44.6531" lon="1.11401">
        <ele>221.72</ele>
        <time>2013-03-03T08:51:16Z</time>
      </trkpt>
      <trkpt lat="44.65363" lon="1.11381">
        <ele>212.11</ele>
        <time>2013-03-03T08:51:31Z</time>
      </trkpt>
      <trkpt lat="44.65392" lon="1.11365">
        <ele>213.07</ele>
        <time>2013-03-03T08:51:41Z</time>
      </trkpt>
      <trkpt lat="44.65415" lon="1.11344">
        <ele>213.55</ele>
        <time>2013-03-03T08:51:53Z</time>
      </trkpt>
      <trkpt lat="44.65415" lon="1.11313">
        <ele>214.99</ele>
        <time>2013-03-03T08:52:06Z</time>
      </trkpt>
      <trkpt lat="44.65415" lon="1.11277">
        <ele>218.36</ele>
        <time>2013-03-03T08:52:21Z</time>
      </trkpt>
      <trkpt lat="44.65412" lon="1.11247">
        <ele>218.84</ele>
        <time>2013-03-03T08:52:34Z</time>
      </trkpt>
      <trkpt lat="44.65404" lon="1.11211">
        <ele>220.76</ele>
        <time>2013-03-03T08:52:48Z</time>
      </trkpt>
      <trkpt lat="44.65394" lon="1.1117">
        <ele>221.72</ele>
        <time>2013-03-03T08:53:03Z</time>
      </trkpt>
      <trkpt lat="44.65385" lon="1.11129">
        <ele>223.64</ele>
        <time>2013-03-03T08:53:19Z</time>
      </trkpt>
      <trkpt lat="44.65375" lon="1.11087">
        <ele>224.61</ele>
        <time>2013-03-03T08:53:34Z</time>
      </trkpt>
      <trkpt lat="44.65367" lon="1.11065">
        <ele>228.45</ele>
        <time>2013-03-03T08:53:44Z</time>
      </trkpt>
      <trkpt lat="44.65364" lon="1.11058">
        <ele>229.89</ele>
        <time>2013-03-03T08:53:47Z</time>
      </trkpt>
      <trkpt lat="44.65364" lon="1.11043">
        <ele>231.81</ele>
        <time>2013-03-03T08:53:53Z</time>
      </trkpt>
      <trkpt lat="44.65365" lon="1.11014">
        <ele>236.62</ele>
        <time>2013-03-03T08:54:08Z</time>
      </trkpt>
      <trkpt lat="44.65365" lon="1.11008">
        <ele>237.58</ele>
        <time>2013-03-03T08:54:11Z</time>
      </trkpt>
      <trkpt lat="44.65365" lon="1.10979">
        <ele>241.43</ele>
        <time>2013-03-03T08:54:25Z</time>
      </trkpt>
      <trkpt lat="44.65361" lon="1.10948">
        <ele>242.87</ele>
        <time>2013-03-03T08:54:38Z</time>
      </trkpt>
      <trkpt lat="44.65363" lon="1.10928">
        <ele>245.27</ele>
        <time>2013-03-03T08:54:47Z</time>
      </trkpt>
      <trkpt lat="44.65376" lon="1.10895">
        <ele>248.64</ele>
        <time>2013-03-03T08:55:03Z</time>
      </trkpt>
      <trkpt lat="44.65387" lon="1.10875">
        <ele>250.08</ele>
        <time>2013-03-03T08:55:15Z</time>
      </trkpt>
      <trkpt lat="44.65388" lon="1.10874">
        <ele>250.56</ele>
        <time>2013-03-03T08:55:16Z</time>
      </trkpt>
      <trkpt lat="44.65392" lon="1.10866">
        <ele>252</ele>
        <time>2013-03-03T08:55:20Z</time>
      </trkpt>
      <trkpt lat="44.65412" lon="1.10845">
        <ele>255.37</ele>
        <time>2013-03-03T08:55:34Z</time>
      </trkpt>
      <trkpt lat="44.65435" lon="1.10823">
        <ele>259.21</ele>
        <time>2013-03-03T08:55:48Z</time>
      </trkpt>
      <trkpt lat="44.65451" lon="1.10809">
        <ele>261.14</ele>
        <time>2013-03-03T08:56:02Z</time>
      </trkpt>
      <trkpt lat="44.65465" lon="1.10796">
        <ele>264.02</ele>
        <time>2013-03-03T08:56:15Z</time>
      </trkpt>
      <trkpt lat="44.65482" lon="1.10772">
        <ele>265.94</ele>
        <time>2013-03-03T08:56:29Z</time>
      </trkpt>
      <trkpt lat="44.65487" lon="1.10762">
        <ele>265.46</ele>
        <time>2013-03-03T08:56:33Z</time>
      </trkpt>
      <trkpt lat="44.65492" lon="1.10752">
        <ele>265.46</ele>
        <time>2013-03-03T08:56:37Z</time>
      </trkpt>
      <trkpt lat="44.65501" lon="1.10732">
        <ele>268.83</ele>
        <time>2013-03-03T08:56:46Z</time>
      </trkpt>
      <trkpt lat="44.65504" lon="1.10724">
        <ele>269.79</ele>
        <time>2013-03-03T08:56:50Z</time>
      </trkpt>
      <trkpt lat="44.65512" lon="1.10693">
        <ele>272.67</ele>
        <time>2013-03-03T08:57:02Z</time>
      </trkpt>
      <trkpt lat="44.65521" lon="1.10649">
        <ele>268.83</ele>
        <time>2013-03-03T08:57:14Z</time>
      </trkpt>
      <trkpt lat="44.65531" lon="1.10643">
        <ele>267.86</ele>
        <time>2013-03-03T08:57:26Z</time>
      </trkpt>
      <trkpt lat="44.65534" lon="1.10645">
        <ele>269.79</ele>
        <time>2013-03-03T08:57:44Z</time>
      </trkpt>
      <trkpt lat="44.65532" lon="1.10636">
        <ele>271.71</ele>
        <time>2013-03-03T08:58:06Z</time>
      </trkpt>
      <trkpt lat="44.6553" lon="1.10631">
        <ele>272.67</ele>
        <time>2013-03-03T08:58:36Z</time>
      </trkpt>
      <trkpt lat="44.65533" lon="1.10638">
        <ele>270.75</ele>
        <time>2013-03-03T08:59:05Z</time>
      </trkpt>
      <trkpt lat="44.65535" lon="1.10638">
        <ele>270.75</ele>
        <time>2013-03-03T08:59:10Z</time>
      </trkpt>
      <trkpt lat="44.65551" lon="1.10666">
        <ele>274.11</ele>
        <time>2013-03-03T08:59:24Z</time>
      </trkpt>
      <trkpt lat="44.65567" lon="1.10689">
        <ele>275.56</ele>
        <time>2013-03-03T08:59:34Z</time>
      </trkpt>
      <trkpt lat="44.6558" lon="1.10704">
        <ele>277</ele>
        <time>2013-03-03T08:59:42Z</time>
      </trkpt>
      <trkpt lat="44.65585" lon="1.10713">
        <ele>277</ele>
        <time>2013-03-03T08:59:55Z</time>
      </trkpt>
      <trkpt lat="44.65583" lon="1.10715">
        <ele>276.04</ele>
        <time>2013-03-03T09:00:28Z</time>
      </trkpt>
      <trkpt lat="44.65584" lon="1.10722">
        <ele>273.15</ele>
        <time>2013-03-03T09:00:54Z</time>
      </trkpt>
      <trkpt lat="44.65585" lon="1.10721">
        <ele>276.52</ele>
        <time>2013-03-03T09:01:29Z</time>
      </trkpt>
      <trkpt lat="44.65582" lon="1.10715">
        <ele>279.4</ele>
        <time>2013-03-03T09:01:57Z</time>
      </trkpt>
      <trkpt lat="44.65583" lon="1.10717">
        <ele>281.32</ele>
        <time>2013-03-03T09:02:24Z</time>
      </trkpt>
      <trkpt lat="44.65587" lon="1.10721">
        <ele>288.05</ele>
        <time>2013-03-03T09:02:59Z</time>
      </trkpt>
      <trkpt lat="44.6559" lon="1.10715">
        <ele>283.25</ele>
        <time>2013-03-03T09:03:24Z</time>
      </trkpt>
      <trkpt lat="44.65595" lon="1.10715">
        <ele>281.32</ele>
        <time>2013-03-03T09:03:48Z</time>
      </trkpt>
      <trkpt lat="44.65593" lon="1.10719">
        <ele>280.84</ele>
        <time>2013-03-03T09:04:11Z</time>
      </trkpt>
      <trkpt lat="44.65588" lon="1.1072">
        <ele>277.48</ele>
        <time>2013-03-03T09:04:39Z</time>
      </trkpt>
      <trkpt lat="44.65588" lon="1.10715">
        <ele>279.4</ele>
        <time>2013-03-03T09:05:03Z</time>
      </trkpt>
      <trkpt lat="44.6559" lon="1.10719">
        <ele>279.88</ele>
        <time>2013-03-03T09:05:15Z</time>
      </trkpt>
      <trkpt lat="44.65608" lon="1.1075">
        <ele>275.07</ele>
        <time>2013-03-03T09:05:29Z</time>
      </trkpt>
      <trkpt lat="44.65617" lon="1.10788">
        <ele>272.67</ele>
        <time>2013-03-03T09:05:38Z</time>
      </trkpt>
      <trkpt lat="44.65622" lon="1.10819">
        <ele>269.31</ele>
        <time>2013-03-03T09:05:45Z</time>
      </trkpt>
      <trkpt lat="44.65637" lon="1.10826">
        <ele>268.83</ele>
        <time>2013-03-03T09:05:49Z</time>
      </trkpt>
      <trkpt lat="44.65656" lon="1.10829">
        <ele>266.9</ele>
        <time>2013-03-03T09:05:53Z</time>
      </trkpt>
      <trkpt lat="44.65687" lon="1.10834">
        <ele>264.5</ele>
        <time>2013-03-03T09:05:58Z</time>
      </trkpt>
      <trkpt lat="44.65701" lon="1.10834">
        <ele>262.58</ele>
        <time>2013-03-03T09:06:00Z</time>
      </trkpt>
      <trkpt lat="44.65744" lon="1.10856">
        <ele>257.29</ele>
        <time>2013-03-03T09:06:07Z</time>
      </trkpt>
      <trkpt lat="44.65763" lon="1.10879">
        <ele>256.33</ele>
        <time>2013-03-03T09:06:11Z</time>
      </trkpt>
      <trkpt lat="44.65786" lon="1.10897">
        <ele>254.89</ele>
        <time>2013-03-03T09:06:15Z</time>
      </trkpt>
      <trkpt lat="44.65799" lon="1.109">
        <ele>253.44</ele>
        <time>2013-03-03T09:06:17Z</time>
      </trkpt>
      <trkpt lat="44.6582" lon="1.10898">
        <ele>251.04</ele>
        <time>2013-03-03T09:06:21Z</time>
      </trkpt>
      <trkpt lat="44.65823" lon="1.10897">
        <ele>250.08</ele>
        <time>2013-03-03T09:06:23Z</time>
      </trkpt>
      <trkpt lat="44.65834" lon="1.10906">
        <ele>247.68</ele>
        <time>2013-03-03T09:06:27Z</time>
      </trkpt>
      <trkpt lat="44.65859" lon="1.10923">
        <ele>243.83</ele>
        <time>2013-03-03T09:06:32Z</time>
      </trkpt>
      <trkpt lat="44.65888" lon="1.1093">
        <ele>242.39</ele>
        <time>2013-03-03T09:06:39Z</time>
      </trkpt>
      <trkpt lat="44.65899" lon="1.10931">
        <ele>239.99</ele>
        <time>2013-03-03T09:06:52Z</time>
      </trkpt>
      <trkpt lat="44.65903" lon="1.10931">
        <ele>237.58</ele>
        <time>2013-03-03T09:07:16Z</time>
      </trkpt>
      <trkpt lat="44.65921" lon="1.10922">
        <ele>239.99</ele>
        <time>2013-03-03T09:07:28Z</time>
      </trkpt>
      <trkpt lat="44.65925" lon="1.10918">
        <ele>240.47</ele>
        <time>2013-03-03T09:07:31Z</time>
      </trkpt>
      <trkpt lat="44.65948" lon="1.10912">
        <ele>240.95</ele>
        <time>2013-03-03T09:07:45Z</time>
      </trkpt>
      <trkpt lat="44.6596" lon="1.10921">
        <ele>244.79</ele>
        <time>2013-03-03T09:07:52Z</time>
      </trkpt>
      <trkpt lat="44.65986" lon="1.10931">
        <ele>247.68</ele>
        <time>2013-03-03T09:08:06Z</time>
      </trkpt>
      <trkpt lat="44.66014" lon="1.10945">
        <ele>250.56</ele>
        <time>2013-03-03T09:08:19Z</time>
      </trkpt>
      <trkpt lat="44.66049" lon="1.10964">
        <ele>256.33</ele>
        <time>2013-03-03T09:08:33Z</time>
      </trkpt>
      <trkpt lat="44.66079" lon="1.1097">
        <ele>256.81</ele>
        <time>2013-03-03T09:08:46Z</time>
      </trkpt>
      <trkpt lat="44.66106" lon="1.10966">
        <ele>259.69</ele>
        <time>2013-03-03T09:08:59Z</time>
      </trkpt>
      <trkpt lat="44.66118" lon="1.10959">
        <ele>260.17</ele>
        <time>2013-03-03T09:09:06Z</time>
      </trkpt>
      <trkpt lat="44.66126" lon="1.1092">
        <ele>262.58</ele>
        <time>2013-03-03T09:09:22Z</time>
      </trkpt>
      <trkpt lat="44.66133" lon="1.10878">
        <ele>264.98</ele>
        <time>2013-03-03T09:09:38Z</time>
      </trkpt>
      <trkpt lat="44.66132" lon="1.10873">
        <ele>265.46</ele>
        <time>2013-03-03T09:09:41Z</time>
      </trkpt>
      <trkpt lat="44.6613" lon="1.1087">
        <ele>265.94</ele>
        <time>2013-03-03T09:09:43Z</time>
      </trkpt>
      <trkpt lat="44.6613" lon="1.10867">
        <ele>265.46</ele>
        <time>2013-03-03T09:10:00Z</time>
      </trkpt>
      <trkpt lat="44.66129" lon="1.10863">
        <ele>264.02</ele>
        <time>2013-03-03T09:10:09Z</time>
      </trkpt>
      <trkpt lat="44.66107" lon="1.1084">
        <ele>264.98</ele>
        <time>2013-03-03T09:10:24Z</time>
      </trkpt>
      <trkpt lat="44.66094" lon="1.10808">
        <ele>265.46</ele>
        <time>2013-03-03T09:10:35Z</time>
      </trkpt>
      <trkpt lat="44.66077" lon="1.10756">
        <ele>268.35</ele>
        <time>2013-03-03T09:10:50Z</time>
      </trkpt>
      <trkpt lat="44.66058" lon="1.10696">
        <ele>268.35</ele>
        <time>2013-03-03T09:11:06Z</time>
      </trkpt>
      <trkpt lat="44.66051" lon="1.10627">
        <ele>271.23</ele>
        <time>2013-03-03T09:11:23Z</time>
      </trkpt>
      <trkpt lat="44.66037" lon="1.10559">
        <ele>273.15</ele>
        <time>2013-03-03T09:11:38Z</time>
      </trkpt>
      <trkpt lat="44.66023" lon="1.10477">
        <ele>271.71</ele>
        <time>2013-03-03T09:11:56Z</time>
      </trkpt>
      <trkpt lat="44.66003" lon="1.10405">
        <ele>270.75</ele>
        <time>2013-03-03T09:12:12Z</time>
      </trkpt>
      <trkpt lat="44.66001" lon="1.104">
        <ele>270.75</ele>
        <time>2013-03-03T09:12:13Z</time>
      </trkpt>
      <trkpt lat="44.6597" lon="1.10299">
        <ele>267.86</ele>
        <time>2013-03-03T09:12:28Z</time>
      </trkpt>
      <trkpt lat="44.65951" lon="1.10238">
        <ele>267.38</ele>
        <time>2013-03-03T09:12:41Z</time>
      </trkpt>
      <trkpt lat="44.65944" lon="1.10208">
        <ele>266.9</ele>
        <time>2013-03-03T09:12:47Z</time>
      </trkpt>
      <trkpt lat="44.65941" lon="1.10197">
        <ele>266.42</ele>
        <time>2013-03-03T09:12:49Z</time>
      </trkpt>
      <trkpt lat="44.65916" lon="1.10127">
        <ele>264.5</ele>
        <time>2013-03-03T09:13:00Z</time>
      </trkpt>
      <trkpt lat="44.65907" lon="1.10097">
        <ele>263.54</ele>
        <time>2013-03-03T09:13:04Z</time>
      </trkpt>
      <trkpt lat="44.65882" lon="1.10026">
        <ele>261.14</ele>
        <time>2013-03-03T09:13:12Z</time>
      </trkpt>
      <trkpt lat="44.65869" lon="1.10002">
        <ele>259.69</ele>
        <time>2013-03-03T09:13:15Z</time>
      </trkpt>
      <trkpt lat="44.65841" lon="1.09959">
        <ele>258.25</ele>
        <time>2013-03-03T09:13:22Z</time>
      </trkpt>
      <trkpt lat="44.65817" lon="1.09922">
        <ele>256.33</ele>
        <time>2013-03-03T09:13:29Z</time>
      </trkpt>
      <trkpt lat="44.65801" lon="1.09892">
        <ele>254.41</ele>
        <time>2013-03-03T09:13:34Z</time>
      </trkpt>
      <trkpt lat="44.65776" lon="1.09829">
        <ele>253.93</ele>
        <time>2013-03-03T09:13:48Z</time>
      </trkpt>
      <trkpt lat="44.65758" lon="1.09795">
        <ele>257.29</ele>
        <time>2013-03-03T09:13:57Z</time>
      </trkpt>
      <trkpt lat="44.65738" lon="1.09748">
        <ele>262.58</ele>
        <time>2013-03-03T09:14:08Z</time>
      </trkpt>
      <trkpt lat="44.65715" lon="1.09708">
        <ele>267.38</ele>
        <time>2013-03-03T09:14:19Z</time>
      </trkpt>
      <trkpt lat="44.65705" lon="1.09686">
        <ele>269.31</ele>
        <time>2013-03-03T09:14:26Z</time>
      </trkpt>
      <trkpt lat="44.657" lon="1.09683">
        <ele>268.83</ele>
        <time>2013-03-03T09:14:41Z</time>
      </trkpt>
      <trkpt lat="44.657" lon="1.09681">
        <ele>264.98</ele>
        <time>2013-03-03T09:15:02Z</time>
      </trkpt>
      <trkpt lat="44.65698" lon="1.09684">
        <ele>264.98</ele>
        <time>2013-03-03T09:15:28Z</time>
      </trkpt>
      <trkpt lat="44.65697" lon="1.09681">
        <ele>264.98</ele>
        <time>2013-03-03T09:15:49Z</time>
      </trkpt>
      <trkpt lat="44.65697" lon="1.09681">
        <ele>264.98</ele>
        <time>2013-03-03T09:16:16Z</time>
      </trkpt>
      <trkpt lat="44.65697" lon="1.0968">
        <ele>264.02</ele>
        <time>2013-03-03T09:16:28Z</time>
      </trkpt>
      <trkpt lat="44.6569" lon="1.09668">
        <ele>263.54</ele>
        <time>2013-03-03T09:16:32Z</time>
      </trkpt>
      <trkpt lat="44.65679" lon="1.09635">
        <ele>261.62</ele>
        <time>2013-03-03T09:16:37Z</time>
      </trkpt>
      <trkpt lat="44.65668" lon="1.09605">
        <ele>260.17</ele>
        <time>2013-03-03T09:16:41Z</time>
      </trkpt>
      <trkpt lat="44.65665" lon="1.09586">
        <ele>259.21</ele>
        <time>2013-03-03T09:16:43Z</time>
      </trkpt>
      <trkpt lat="44.65663" lon="1.09567">
        <ele>258.73</ele>
        <time>2013-03-03T09:16:45Z</time>
      </trkpt>
      <trkpt lat="44.65659" lon="1.09538">
        <ele>256.33</ele>
        <time>2013-03-03T09:16:48Z</time>
      </trkpt>
      <trkpt lat="44.65658" lon="1.0952">
        <ele>254.89</ele>
        <time>2013-03-03T09:16:50Z</time>
      </trkpt>
      <trkpt lat="44.65647" lon="1.09491">
        <ele>252</ele>
        <time>2013-03-03T09:16:54Z</time>
      </trkpt>
      <trkpt lat="44.65624" lon="1.09467">
        <ele>248.64</ele>
        <time>2013-03-03T09:16:58Z</time>
      </trkpt>
      <trkpt lat="44.65594" lon="1.09425">
        <ele>242.39</ele>
        <time>2013-03-03T09:17:04Z</time>
      </trkpt>
      <trkpt lat="44.65569" lon="1.09389">
        <ele>235.18</ele>
        <time>2013-03-03T09:17:09Z</time>
      </trkpt>
      <trkpt lat="44.65556" lon="1.09364">
        <ele>230.85</ele>
        <time>2013-03-03T09:17:12Z</time>
      </trkpt>
      <trkpt lat="44.65521" lon="1.09297">
        <ele>218.36</ele>
        <time>2013-03-03T09:17:21Z</time>
      </trkpt>
      <trkpt lat="44.65519" lon="1.0929">
        <ele>217.4</ele>
        <time>2013-03-03T09:17:22Z</time>
      </trkpt>
      <trkpt lat="44.65512" lon="1.0927">
        <ele>213.55</ele>
        <time>2013-03-03T09:17:25Z</time>
      </trkpt>
      <trkpt lat="44.65507" lon="1.09248">
        <ele>210.67</ele>
        <time>2013-03-03T09:17:28Z</time>
      </trkpt>
      <trkpt lat="44.65505" lon="1.09216">
        <ele>206.82</ele>
        <time>2013-03-03T09:17:32Z</time>
      </trkpt>
      <trkpt lat="44.65491" lon="1.09149">
        <ele>200.57</ele>
        <time>2013-03-03T09:17:41Z</time>
      </trkpt>
      <trkpt lat="44.65464" lon="1.09157">
        <ele>198.65</ele>
        <time>2013-03-03T09:17:47Z</time>
      </trkpt>
      <trkpt lat="44.65458" lon="1.09162">
        <ele>198.17</ele>
        <time>2013-03-03T09:17:49Z</time>
      </trkpt>
      <trkpt lat="44.65458" lon="1.09141">
        <ele>195.28</ele>
        <time>2013-03-03T09:17:57Z</time>
      </trkpt>
      <trkpt lat="44.65474" lon="1.09117">
        <ele>192.88</ele>
        <time>2013-03-03T09:18:03Z</time>
      </trkpt>
      <trkpt lat="44.6548" lon="1.09113">
        <ele>191.92</ele>
        <time>2013-03-03T09:18:05Z</time>
      </trkpt>
      <trkpt lat="44.65477" lon="1.09104">
        <ele>190.96</ele>
        <time>2013-03-03T09:18:11Z</time>
      </trkpt>
      <trkpt lat="44.65459" lon="1.09116">
        <ele>190.48</ele>
        <time>2013-03-03T09:18:17Z</time>
      </trkpt>
      <trkpt lat="44.65439" lon="1.09143">
        <ele>189.04</ele>
        <time>2013-03-03T09:18:23Z</time>
      </trkpt>
      <trkpt lat="44.65416" lon="1.09175">
        <ele>186.63</ele>
        <time>2013-03-03T09:18:29Z</time>
      </trkpt>
      <trkpt lat="44.6541" lon="1.09186">
        <ele>185.67</ele>
        <time>2013-03-03T09:18:31Z</time>
      </trkpt>
      <trkpt lat="44.65389" lon="1.09222">
        <ele>180.87</ele>
        <time>2013-03-03T09:18:43Z</time>
      </trkpt>
      <trkpt lat="44.65383" lon="1.09227">
        <ele>186.15</ele>
        <time>2013-03-03T09:19:15Z</time>
      </trkpt>
      <trkpt lat="44.65382" lon="1.09225">
        <ele>187.11</ele>
        <time>2013-03-03T09:19:36Z</time>
      </trkpt>
      <trkpt lat="44.65379" lon="1.09222">
        <ele>190.96</ele>
        <time>2013-03-03T09:20:02Z</time>
      </trkpt>
      <trkpt lat="44.65381" lon="1.09221">
        <ele>190.48</ele>
        <time>2013-03-03T09:20:19Z</time>
      </trkpt>
      <trkpt lat="44.65381" lon="1.09222">
        <ele>191.44</ele>
        <time>2013-03-03T09:20:26Z</time>
      </trkpt>
      <trkpt lat="44.65386" lon="1.09209">
        <ele>189.52</ele>
        <time>2013-03-03T09:20:31Z</time>
      </trkpt>
      <trkpt lat="44.65412" lon="1.09146">
        <ele>182.31</ele>
        <time>2013-03-03T09:20:43Z</time>
      </trkpt>
      <trkpt lat="44.65423" lon="1.09119">
        <ele>181.35</ele>
        <time>2013-03-03T09:20:48Z</time>
      </trkpt>
      <trkpt lat="44.65437" lon="1.09063">
        <ele>175.58</ele>
        <time>2013-03-03T09:20:56Z</time>
      </trkpt>
      <trkpt lat="44.65442" lon="1.09049">
        <ele>174.62</ele>
        <time>2013-03-03T09:20:58Z</time>
      </trkpt>
      <trkpt lat="44.65439" lon="1.08959">
        <ele>172.69</ele>
        <time>2013-03-03T09:21:11Z</time>
      </trkpt>
      <trkpt lat="44.65437" lon="1.08856">
        <ele>173.66</ele>
        <time>2013-03-03T09:21:27Z</time>
      </trkpt>
      <trkpt lat="44.65437" lon="1.08843">
        <ele>173.66</ele>
        <time>2013-03-03T09:21:29Z</time>
      </trkpt>
      <trkpt lat="44.65447" lon="1.08758">
        <ele>175.58</ele>
        <time>2013-03-03T09:21:45Z</time>
      </trkpt>
      <trkpt lat="44.6545" lon="1.0873">
        <ele>175.58</ele>
        <time>2013-03-03T09:21:50Z</time>
      </trkpt>
      <trkpt lat="44.65452" lon="1.08678">
        <ele>173.17</ele>
        <time>2013-03-03T09:21:57Z</time>
      </trkpt>
      <trkpt lat="44.65457" lon="1.08648">
        <ele>172.69</ele>
        <time>2013-03-03T09:22:01Z</time>
      </trkpt>
      <trkpt lat="44.65474" lon="1.08583">
        <ele>172.69</ele>
        <time>2013-03-03T09:22:14Z</time>
      </trkpt>
      <trkpt lat="44.65481" lon="1.08548">
        <ele>171.73</ele>
        <time>2013-03-03T09:22:24Z</time>
      </trkpt>
      <trkpt lat="44.65494" lon="1.08502">
        <ele>171.25</ele>
        <time>2013-03-03T09:22:35Z</time>
      </trkpt>
      <trkpt lat="44.65508" lon="1.08448">
        <ele>167.89</ele>
        <time>2013-03-03T09:22:47Z</time>
      </trkpt>
      <trkpt lat="44.65525" lon="1.08394">
        <ele>168.37</ele>
        <time>2013-03-03T09:22:58Z</time>
      </trkpt>
      <trkpt lat="44.65552" lon="1.0836">
        <ele>168.37</ele>
        <time>2013-03-03T09:23:08Z</time>
      </trkpt>
      <trkpt lat="44.65579" lon="1.08359">
        <ele>167.89</ele>
        <time>2013-03-03T09:23:18Z</time>
      </trkpt>
      <trkpt lat="44.65612" lon="1.08366">
        <ele>167.89</ele>
        <time>2013-03-03T09:23:28Z</time>
      </trkpt>
      <trkpt lat="44.65647" lon="1.08365">
        <ele>163.08</ele>
        <time>2013-03-03T09:23:39Z</time>
      </trkpt>
      <trkpt lat="44.65686" lon="1.08351">
        <ele>160.2</ele>
        <time>2013-03-03T09:23:50Z</time>
      </trkpt>
      <trkpt lat="44.65718" lon="1.08326">
        <ele>165.48</ele>
        <time>2013-03-03T09:24:00Z</time>
      </trkpt>
      <trkpt lat="44.65751" lon="1.08289">
        <ele>169.33</ele>
        <time>2013-03-03T09:24:10Z</time>
      </trkpt>
      <trkpt lat="44.65783" lon="1.08247">
        <ele>174.62</ele>
        <time>2013-03-03T09:24:21Z</time>
      </trkpt>
      <trkpt lat="44.65807" lon="1.08206">
        <ele>181.35</ele>
        <time>2013-03-03T09:24:32Z</time>
      </trkpt>
      <trkpt lat="44.65834" lon="1.08163">
        <ele>186.15</ele>
        <time>2013-03-03T09:24:43Z</time>
      </trkpt>
      <trkpt lat="44.65845" lon="1.08149">
        <ele>187.11</ele>
        <time>2013-03-03T09:24:47Z</time>
      </trkpt>
      <trkpt lat="44.65869" lon="1.08111">
        <ele>187.11</ele>
        <time>2013-03-03T09:24:52Z</time>
      </trkpt>
      <trkpt lat="44.65891" lon="1.08085">
        <ele>188.08</ele>
        <time>2013-03-03T09:24:57Z</time>
      </trkpt>
      <trkpt lat="44.65916" lon="1.08064">
        <ele>187.59</ele>
        <time>2013-03-03T09:25:03Z</time>
      </trkpt>
      <trkpt lat="44.65947" lon="1.08054">
        <ele>185.19</ele>
        <time>2013-03-03T09:25:13Z</time>
      </trkpt>
      <trkpt lat="44.65976" lon="1.0807">
        <ele>182.31</ele>
        <time>2013-03-03T09:25:24Z</time>
      </trkpt>
      <trkpt lat="44.65997" lon="1.08118">
        <ele>184.23</ele>
        <time>2013-03-03T09:25:37Z</time>
      </trkpt>
      <trkpt lat="44.65999" lon="1.08159">
        <ele>187.59</ele>
        <time>2013-03-03T09:25:48Z</time>
      </trkpt>
      <trkpt lat="44.66009" lon="1.0817">
        <ele>189.04</ele>
        <time>2013-03-03T09:25:53Z</time>
      </trkpt>
      <trkpt lat="44.66042" lon="1.08173">
        <ele>185.19</ele>
        <time>2013-03-03T09:26:04Z</time>
      </trkpt>
      <trkpt lat="44.66062" lon="1.08149">
        <ele>183.75</ele>
        <time>2013-03-03T09:26:16Z</time>
      </trkpt>
      <trkpt lat="44.66065" lon="1.08144">
        <ele>181.35</ele>
        <time>2013-03-03T09:26:27Z</time>
      </trkpt>
      <trkpt lat="44.66064" lon="1.08148">
        <ele>177.02</ele>
        <time>2013-03-03T09:26:50Z</time>
      </trkpt>
      <trkpt lat="44.66065" lon="1.08146">
        <ele>176.54</ele>
        <time>2013-03-03T09:27:20Z</time>
      </trkpt>
      <trkpt lat="44.66066" lon="1.08143">
        <ele>177.02</ele>
        <time>2013-03-03T09:27:39Z</time>
      </trkpt>
      <trkpt lat="44.66066" lon="1.08145">
        <ele>177.98</ele>
        <time>2013-03-03T09:28:00Z</time>
      </trkpt>
      <trkpt lat="44.66067" lon="1.08143">
        <ele>177.98</ele>
        <time>2013-03-03T09:28:21Z</time>
      </trkpt>
      <trkpt lat="44.66067" lon="1.08147">
        <ele>177.98</ele>
        <time>2013-03-03T09:28:36Z</time>
      </trkpt>
      <trkpt lat="44.66106" lon="1.08143">
        <ele>176.54</ele>
        <time>2013-03-03T09:28:51Z</time>
      </trkpt>
      <trkpt lat="44.6614" lon="1.08141">
        <ele>177.02</ele>
        <time>2013-03-03T09:29:04Z</time>
      </trkpt>
      <trkpt lat="44.66173" lon="1.08138">
        <ele>174.14</ele>
        <time>2013-03-03T09:29:16Z</time>
      </trkpt>
      <trkpt lat="44.66208" lon="1.0813">
        <ele>176.06</ele>
        <time>2013-03-03T09:29:28Z</time>
      </trkpt>
      <trkpt lat="44.6625" lon="1.08114">
        <ele>177.5</ele>
        <time>2013-03-03T09:29:41Z</time>
      </trkpt>
      <trkpt lat="44.66288" lon="1.08093">
        <ele>174.14</ele>
        <time>2013-03-03T09:29:54Z</time>
      </trkpt>
      <trkpt lat="44.66319" lon="1.08074">
        <ele>168.85</ele>
        <time>2013-03-03T09:30:05Z</time>
      </trkpt>
      <trkpt lat="44.66324" lon="1.08071">
        <ele>168.37</ele>
        <time>2013-03-03T09:30:07Z</time>
      </trkpt>
      <trkpt lat="44.66337" lon="1.08054">
        <ele>167.89</ele>
        <time>2013-03-03T09:30:12Z</time>
      </trkpt>
      <trkpt lat="44.6637" lon="1.08029">
        <ele>173.17</ele>
        <time>2013-03-03T09:30:25Z</time>
      </trkpt>
      <trkpt lat="44.66405" lon="1.07994">
        <ele>178.46</ele>
        <time>2013-03-03T09:30:39Z</time>
      </trkpt>
      <trkpt lat="44.66433" lon="1.07961">
        <ele>183.75</ele>
        <time>2013-03-03T09:30:52Z</time>
      </trkpt>
      <trkpt lat="44.66468" lon="1.0792">
        <ele>184.71</ele>
        <time>2013-03-03T09:31:06Z</time>
      </trkpt>
      <trkpt lat="44.66496" lon="1.07893">
        <ele>185.67</ele>
        <time>2013-03-03T09:31:16Z</time>
      </trkpt>
      <trkpt lat="44.66539" lon="1.07878">
        <ele>184.71</ele>
        <time>2013-03-03T09:31:30Z</time>
      </trkpt>
      <trkpt lat="44.66576" lon="1.07895">
        <ele>186.63</ele>
        <time>2013-03-03T09:31:43Z</time>
      </trkpt>
      <trkpt lat="44.66595" lon="1.07932">
        <ele>188.08</ele>
        <time>2013-03-03T09:31:54Z</time>
      </trkpt>
      <trkpt lat="44.66616" lon="1.07984">
        <ele>189.52</ele>
        <time>2013-03-03T09:32:07Z</time>
      </trkpt>
      <trkpt lat="44.66634" lon="1.08024">
        <ele>189.52</ele>
        <time>2013-03-03T09:32:17Z</time>
      </trkpt>
      <trkpt lat="44.6666" lon="1.08062">
        <ele>187.11</ele>
        <time>2013-03-03T09:32:29Z</time>
      </trkpt>
      <trkpt lat="44.66687" lon="1.08082">
        <ele>186.63</ele>
        <time>2013-03-03T09:32:40Z</time>
      </trkpt>
      <trkpt lat="44.66717" lon="1.08093">
        <ele>187.59</ele>
        <time>2013-03-03T09:32:51Z</time>
      </trkpt>
      <trkpt lat="44.66747" lon="1.08093">
        <ele>188.08</ele>
        <time>2013-03-03T09:33:00Z</time>
      </trkpt>
      <trkpt lat="44.66784" lon="1.08084">
        <ele>187.59</ele>
        <time>2013-03-03T09:33:13Z</time>
      </trkpt>
      <trkpt lat="44.66813" lon="1.08072">
        <ele>187.59</ele>
        <time>2013-03-03T09:33:26Z</time>
      </trkpt>
      <trkpt lat="44.66832" lon="1.08065">
        <ele>190.48</ele>
        <time>2013-03-03T09:33:37Z</time>
      </trkpt>
      <trkpt lat="44.66837" lon="1.08065">
        <ele>190.48</ele>
        <time>2013-03-03T09:33:41Z</time>
      </trkpt>
      <trkpt lat="44.66857" lon="1.08071">
        <ele>190.96</ele>
        <time>2013-03-03T09:33:54Z</time>
      </trkpt>
      <trkpt lat="44.66864" lon="1.08073">
        <ele>191.44</ele>
        <time>2013-03-03T09:33:59Z</time>
      </trkpt>
      <trkpt lat="44.66887" lon="1.08084">
        <ele>192.4</ele>
        <time>2013-03-03T09:34:13Z</time>
      </trkpt>
      <trkpt lat="44.6691" lon="1.08086">
        <ele>192.88</ele>
        <time>2013-03-03T09:34:26Z</time>
      </trkpt>
      <trkpt lat="44.66913" lon="1.08085">
        <ele>192.88</ele>
        <time>2013-03-03T09:34:28Z</time>
      </trkpt>
      <trkpt lat="44.6692" lon="1.08086">
        <ele>193.36</ele>
        <time>2013-03-03T09:34:32Z</time>
      </trkpt>
      <trkpt lat="44.66923" lon="1.08086">
        <ele>194.32</ele>
        <time>2013-03-03T09:34:34Z</time>
      </trkpt>
      <trkpt lat="44.66947" lon="1.08089">
        <ele>197.69</ele>
        <time>2013-03-03T09:34:48Z</time>
      </trkpt>
      <trkpt lat="44.66967" lon="1.08097">
        <ele>201.05</ele>
        <time>2013-03-03T09:35:02Z</time>
      </trkpt>
      <trkpt lat="44.66985" lon="1.08107">
        <ele>205.38</ele>
        <time>2013-03-03T09:35:13Z</time>
      </trkpt>
      <trkpt lat="44.67004" lon="1.0812">
        <ele>207.3</ele>
        <time>2013-03-03T09:35:26Z</time>
      </trkpt>
      <trkpt lat="44.67027" lon="1.08131">
        <ele>211.15</ele>
        <time>2013-03-03T09:35:40Z</time>
      </trkpt>
      <trkpt lat="44.67051" lon="1.08145">
        <ele>216.91</ele>
        <time>2013-03-03T09:35:53Z</time>
      </trkpt>
      <trkpt lat="44.67064" lon="1.08154">
        <ele>219.32</ele>
        <time>2013-03-03T09:36:00Z</time>
      </trkpt>
      <trkpt lat="44.6708" lon="1.08168">
        <ele>221.72</ele>
        <time>2013-03-03T09:36:10Z</time>
      </trkpt>
      <trkpt lat="44.67096" lon="1.08181">
        <ele>225.09</ele>
        <time>2013-03-03T09:36:21Z</time>
      </trkpt>
      <trkpt lat="44.671" lon="1.08191">
        <ele>226.05</ele>
        <time>2013-03-03T09:36:26Z</time>
      </trkpt>
      <trkpt lat="44.67103" lon="1.08195">
        <ele>227.49</ele>
        <time>2013-03-03T09:36:29Z</time>
      </trkpt>
      <trkpt lat="44.67108" lon="1.08208">
        <ele>229.41</ele>
        <time>2013-03-03T09:36:35Z</time>
      </trkpt>
      <trkpt lat="44.67113" lon="1.08219">
        <ele>230.37</ele>
        <time>2013-03-03T09:36:41Z</time>
      </trkpt>
      <trkpt lat="44.67117" lon="1.08231">
        <ele>231.33</ele>
        <time>2013-03-03T09:36:48Z</time>
      </trkpt>
      <trkpt lat="44.67119" lon="1.08259">
        <ele>237.1</ele>
        <time>2013-03-03T09:37:03Z</time>
      </trkpt>
      <trkpt lat="44.67122" lon="1.08281">
        <ele>239.99</ele>
        <time>2013-03-03T09:37:14Z</time>
      </trkpt>
      <trkpt lat="44.67124" lon="1.08326">
        <ele>244.31</ele>
        <time>2013-03-03T09:37:29Z</time>
      </trkpt>
      <trkpt lat="44.67122" lon="1.08353">
        <ele>249.6</ele>
        <time>2013-03-03T09:37:42Z</time>
      </trkpt>
      <trkpt lat="44.67122" lon="1.08357">
        <ele>250.08</ele>
        <time>2013-03-03T09:37:44Z</time>
      </trkpt>
      <trkpt lat="44.67124" lon="1.08385">
        <ele>254.89</ele>
        <time>2013-03-03T09:37:56Z</time>
      </trkpt>
      <trkpt lat="44.67118" lon="1.08416">
        <ele>258.73</ele>
        <time>2013-03-03T09:38:08Z</time>
      </trkpt>
      <trkpt lat="44.67105" lon="1.08444">
        <ele>263.06</ele>
        <time>2013-03-03T09:38:20Z</time>
      </trkpt>
      <trkpt lat="44.67102" lon="1.08452">
        <ele>262.1</ele>
        <time>2013-03-03T09:38:23Z</time>
      </trkpt>
      <trkpt lat="44.67088" lon="1.08481">
        <ele>258.25</ele>
        <time>2013-03-03T09:38:36Z</time>
      </trkpt>
      <trkpt lat="44.67086" lon="1.08484">
        <ele>258.25</ele>
        <time>2013-03-03T09:38:38Z</time>
      </trkpt>
      <trkpt lat="44.67073" lon="1.08503">
        <ele>253.44</ele>
        <time>2013-03-03T09:38:54Z</time>
      </trkpt>
      <trkpt lat="44.67068" lon="1.08511">
        <ele>248.16</ele>
        <time>2013-03-03T09:39:13Z</time>
      </trkpt>
      <trkpt lat="44.67053" lon="1.08533">
        <ele>246.23</ele>
        <time>2013-03-03T09:39:27Z</time>
      </trkpt>
      <trkpt lat="44.67046" lon="1.08562">
        <ele>246.23</ele>
        <time>2013-03-03T09:39:39Z</time>
      </trkpt>
      <trkpt lat="44.6703" lon="1.08598">
        <ele>247.68</ele>
        <time>2013-03-03T09:39:53Z</time>
      </trkpt>
      <trkpt lat="44.67017" lon="1.08637">
        <ele>248.64</ele>
        <time>2013-03-03T09:40:09Z</time>
      </trkpt>
      <trkpt lat="44.67003" lon="1.08684">
        <ele>250.08</ele>
        <time>2013-03-03T09:40:29Z</time>
      </trkpt>
      <trkpt lat="44.66994" lon="1.08733">
        <ele>253.93</ele>
        <time>2013-03-03T09:40:49Z</time>
      </trkpt>
      <trkpt lat="44.67002" lon="1.08775">
        <ele>256.81</ele>
        <time>2013-03-03T09:41:07Z</time>
      </trkpt>
      <trkpt lat="44.67001" lon="1.08784">
        <ele>257.29</ele>
        <time>2013-03-03T09:41:11Z</time>
      </trkpt>
      <trkpt lat="44.66992" lon="1.08787">
        <ele>259.21</ele>
        <time>2013-03-03T09:41:18Z</time>
      </trkpt>
      <trkpt lat="44.66967" lon="1.08792">
        <ele>266.42</ele>
        <time>2013-03-03T09:41:34Z</time>
      </trkpt>
      <trkpt lat="44.66941" lon="1.08793">
        <ele>267.86</ele>
        <time>2013-03-03T09:41:48Z</time>
      </trkpt>
      <trkpt lat="44.66911" lon="1.0881">
        <ele>268.83</ele>
        <time>2013-03-03T09:42:06Z</time>
      </trkpt>
      <trkpt lat="44.66909" lon="1.08815">
        <ele>268.83</ele>
        <time>2013-03-03T09:42:08Z</time>
      </trkpt>
      <trkpt lat="44.66915" lon="1.08853">
        <ele>270.75</ele>
        <time>2013-03-03T09:42:26Z</time>
      </trkpt>
      <trkpt lat="44.66916" lon="1.08856">
        <ele>269.31</ele>
        <time>2013-03-03T09:42:38Z</time>
      </trkpt>
      <trkpt lat="44.66916" lon="1.08856">
        <ele>265.94</ele>
        <time>2013-03-03T09:42:50Z</time>
      </trkpt>
      <trkpt lat="44.66915" lon="1.08855">
        <ele>263.54</ele>
        <time>2013-03-03T09:43:19Z</time>
      </trkpt>
      <trkpt lat="44.66918" lon="1.08858">
        <ele>265.94</ele>
        <time>2013-03-03T09:43:56Z</time>
      </trkpt>
      <trkpt lat="44.66919" lon="1.08854">
        <ele>266.42</ele>
        <time>2013-03-03T09:44:31Z</time>
      </trkpt>
      <trkpt lat="44.66918" lon="1.08858">
        <ele>271.23</ele>
        <time>2013-03-03T09:45:09Z</time>
      </trkpt>
      <trkpt lat="44.66914" lon="1.08855">
        <ele>267.86</ele>
        <time>2013-03-03T09:45:49Z</time>
      </trkpt>
      <trkpt lat="44.66916" lon="1.08856">
        <ele>262.1</ele>
        <time>2013-03-03T09:46:37Z</time>
      </trkpt>
      <trkpt lat="44.66914" lon="1.08854">
        <ele>261.14</ele>
        <time>2013-03-03T09:47:27Z</time>
      </trkpt>
      <trkpt lat="44.66918" lon="1.08857">
        <ele>264.02</ele>
        <time>2013-03-03T09:48:09Z</time>
      </trkpt>
      <trkpt lat="44.66917" lon="1.08857">
        <ele>264.5</ele>
        <time>2013-03-03T09:48:51Z</time>
      </trkpt>
      <trkpt lat="44.66916" lon="1.08854">
        <ele>267.86</ele>
        <time>2013-03-03T09:49:33Z</time>
      </trkpt>
      <trkpt lat="44.66917" lon="1.08856">
        <ele>263.54</ele>
        <time>2013-03-03T09:50:11Z</time>
      </trkpt>
      <trkpt lat="44.66914" lon="1.08856">
        <ele>265.46</ele>
        <time>2013-03-03T09:50:48Z</time>
      </trkpt>
      <trkpt lat="44.66914" lon="1.08857">
        <ele>267.38</ele>
        <time>2013-03-03T09:51:28Z</time>
      </trkpt>
      <trkpt lat="44.66915" lon="1.08857">
        <ele>267.86</ele>
        <time>2013-03-03T09:51:41Z</time>
      </trkpt>
      <trkpt lat="44.66915" lon="1.08856">
        <ele>267.38</ele>
        <time>2013-03-03T09:52:06Z</time>
      </trkpt>
      <trkpt lat="44.66915" lon="1.08856">
        <ele>266.9</ele>
        <time>2013-03-03T09:52:09Z</time>
      </trkpt>
      <trkpt lat="44.66915" lon="1.08862">
        <ele>267.86</ele>
        <time>2013-03-03T09:52:14Z</time>
      </trkpt>
      <trkpt lat="44.6692" lon="1.08868">
        <ele>268.83</ele>
        <time>2013-03-03T09:52:19Z</time>
      </trkpt>
      <trkpt lat="44.66949" lon="1.08883">
        <ele>268.35</ele>
        <time>2013-03-03T09:52:32Z</time>
      </trkpt>
      <trkpt lat="44.67006" lon="1.08914">
        <ele>264.5</ele>
        <time>2013-03-03T09:52:46Z</time>
      </trkpt>
      <trkpt lat="44.67048" lon="1.08893">
        <ele>261.62</ele>
        <time>2013-03-03T09:52:55Z</time>
      </trkpt>
      <trkpt lat="44.67058" lon="1.08877">
        <ele>260.65</ele>
        <time>2013-03-03T09:52:58Z</time>
      </trkpt>
      <trkpt lat="44.67098" lon="1.08806">
        <ele>262.1</ele>
        <time>2013-03-03T09:53:14Z</time>
      </trkpt>
      <trkpt lat="44.67128" lon="1.08759">
        <ele>262.1</ele>
        <time>2013-03-03T09:53:26Z</time>
      </trkpt>
      <trkpt lat="44.67156" lon="1.08712">
        <ele>261.62</ele>
        <time>2013-03-03T09:53:40Z</time>
      </trkpt>
      <trkpt lat="44.67188" lon="1.08658">
        <ele>258.73</ele>
        <time>2013-03-03T09:53:51Z</time>
      </trkpt>
      <trkpt lat="44.67233" lon="1.08569">
        <ele>257.77</ele>
        <time>2013-03-03T09:54:03Z</time>
      </trkpt>
      <trkpt lat="44.67238" lon="1.08551">
        <ele>256.81</ele>
        <time>2013-03-03T09:54:05Z</time>
      </trkpt>
      <trkpt lat="44.67255" lon="1.08406">
        <ele>252.96</ele>
        <time>2013-03-03T09:54:19Z</time>
      </trkpt>
      <trkpt lat="44.67266" lon="1.08286">
        <ele>253.93</ele>
        <time>2013-03-03T09:54:33Z</time>
      </trkpt>
      <trkpt lat="44.67276" lon="1.08164">
        <ele>255.85</ele>
        <time>2013-03-03T09:54:49Z</time>
      </trkpt>
      <trkpt lat="44.6729" lon="1.08026">
        <ele>252.96</ele>
        <time>2013-03-03T09:55:07Z</time>
      </trkpt>
      <trkpt lat="44.67291" lon="1.08018">
        <ele>252.48</ele>
        <time>2013-03-03T09:55:08Z</time>
      </trkpt>
      <trkpt lat="44.67285" lon="1.07982">
        <ele>251.04</ele>
        <time>2013-03-03T09:55:13Z</time>
      </trkpt>
      <trkpt lat="44.67287" lon="1.07955">
        <ele>248.64</ele>
        <time>2013-03-03T09:55:17Z</time>
      </trkpt>
      <trkpt lat="44.67291" lon="1.07942">
        <ele>247.68</ele>
        <time>2013-03-03T09:55:19Z</time>
      </trkpt>
      <trkpt lat="44.67323" lon="1.07848">
        <ele>245.27</ele>
        <time>2013-03-03T09:55:33Z</time>
      </trkpt>
      <trkpt lat="44.67325" lon="1.07827">
        <ele>245.27</ele>
        <time>2013-03-03T09:55:36Z</time>
      </trkpt>
      <trkpt lat="44.67332" lon="1.07717">
        <ele>240.95</ele>
        <time>2013-03-03T09:55:48Z</time>
      </trkpt>
      <trkpt lat="44.67361" lon="1.07671">
        <ele>237.1</ele>
        <time>2013-03-03T09:55:56Z</time>
      </trkpt>
      <trkpt lat="44.67371" lon="1.07683">
        <ele>235.18</ele>
        <time>2013-03-03T09:55:59Z</time>
      </trkpt>
      <trkpt lat="44.67375" lon="1.07697">
        <ele>233.74</ele>
        <time>2013-03-03T09:56:01Z</time>
      </trkpt>
      <trkpt lat="44.67382" lon="1.07751">
        <ele>228.45</ele>
        <time>2013-03-03T09:56:07Z</time>
      </trkpt>
      <trkpt lat="44.67389" lon="1.07822">
        <ele>220.76</ele>
        <time>2013-03-03T09:56:14Z</time>
      </trkpt>
      <trkpt lat="44.67398" lon="1.07888">
        <ele>212.11</ele>
        <time>2013-03-03T09:56:20Z</time>
      </trkpt>
      <trkpt lat="44.67404" lon="1.07921">
        <ele>207.78</ele>
        <time>2013-03-03T09:56:23Z</time>
      </trkpt>
      <trkpt lat="44.6741" lon="1.07949">
        <ele>204.42</ele>
        <time>2013-03-03T09:56:26Z</time>
      </trkpt>
      <trkpt lat="44.67432" lon="1.0797">
        <ele>200.09</ele>
        <time>2013-03-03T09:56:32Z</time>
      </trkpt>
      <trkpt lat="44.67439" lon="1.07952">
        <ele>198.17</ele>
        <time>2013-03-03T09:56:36Z</time>
      </trkpt>
      <trkpt lat="44.67441" lon="1.0792">
        <ele>195.77</ele>
        <time>2013-03-03T09:56:40Z</time>
      </trkpt>
      <trkpt lat="44.67455" lon="1.07826">
        <ele>190.96</ele>
        <time>2013-03-03T09:56:50Z</time>
      </trkpt>
      <trkpt lat="44.6746" lon="1.07765">
        <ele>186.15</ele>
        <time>2013-03-03T09:56:57Z</time>
      </trkpt>
      <trkpt lat="44.67462" lon="1.07726">
        <ele>183.27</ele>
        <time>2013-03-03T09:57:01Z</time>
      </trkpt>
      <trkpt lat="44.67478" lon="1.07606">
        <ele>175.58</ele>
        <time>2013-03-03T09:57:14Z</time>
      </trkpt>
      <trkpt lat="44.67472" lon="1.07566">
        <ele>173.66</ele>
        <time>2013-03-03T09:57:19Z</time>
      </trkpt>
      <trkpt lat="44.67455" lon="1.07511">
        <ele>169.33</ele>
        <time>2013-03-03T09:57:26Z</time>
      </trkpt>
      <trkpt lat="44.6746" lon="1.07472">
        <ele>169.81</ele>
        <time>2013-03-03T09:57:33Z</time>
      </trkpt>
      <trkpt lat="44.6749" lon="1.07452">
        <ele>183.75</ele>
        <time>2013-03-03T09:57:48Z</time>
      </trkpt>
      <trkpt lat="44.67497" lon="1.0745">
        <ele>185.67</ele>
        <time>2013-03-03T09:57:52Z</time>
      </trkpt>
      <trkpt lat="44.67504" lon="1.0744">
        <ele>187.11</ele>
        <time>2013-03-03T09:57:59Z</time>
      </trkpt>
      <trkpt lat="44.6751" lon="1.07437">
        <ele>188.56</ele>
        <time>2013-03-03T09:58:05Z</time>
      </trkpt>
      <trkpt lat="44.67527" lon="1.07423">
        <ele>190</ele>
        <time>2013-03-03T09:58:20Z</time>
      </trkpt>
      <trkpt lat="44.67536" lon="1.07415">
        <ele>191.44</ele>
        <time>2013-03-03T09:58:31Z</time>
      </trkpt>
      <trkpt lat="44.67542" lon="1.07408">
        <ele>192.4</ele>
        <time>2013-03-03T09:58:36Z</time>
      </trkpt>
      <trkpt lat="44.67568" lon="1.07379">
        <ele>193.84</ele>
        <time>2013-03-03T09:58:53Z</time>
      </trkpt>
      <trkpt lat="44.67593" lon="1.07357">
        <ele>194.8</ele>
        <time>2013-03-03T09:59:06Z</time>
      </trkpt>
      <trkpt lat="44.67601" lon="1.07349">
        <ele>194.8</ele>
        <time>2013-03-03T09:59:11Z</time>
      </trkpt>
      <trkpt lat="44.67598" lon="1.07321">
        <ele>194.8</ele>
        <time>2013-03-03T09:59:21Z</time>
      </trkpt>
      <trkpt lat="44.67566" lon="1.07282">
        <ele>194.32</ele>
        <time>2013-03-03T09:59:38Z</time>
      </trkpt>
      <trkpt lat="44.67544" lon="1.07292">
        <ele>198.17</ele>
        <time>2013-03-03T09:59:50Z</time>
      </trkpt>
      <trkpt lat="44.67519" lon="1.07304">
        <ele>205.38</ele>
        <time>2013-03-03T10:00:04Z</time>
      </trkpt>
      <trkpt lat="44.67493" lon="1.0729">
        <ele>210.67</ele>
        <time>2013-03-03T10:00:19Z</time>
      </trkpt>
      <trkpt lat="44.67498" lon="1.07263">
        <ele>212.11</ele>
        <time>2013-03-03T10:00:33Z</time>
      </trkpt>
      <trkpt lat="44.67518" lon="1.07241">
        <ele>213.55</ele>
        <time>2013-03-03T10:00:47Z</time>
      </trkpt>
      <trkpt lat="44.6754" lon="1.07215">
        <ele>216.91</ele>
        <time>2013-03-03T10:01:02Z</time>
      </trkpt>
      <trkpt lat="44.67562" lon="1.07191">
        <ele>219.32</ele>
        <time>2013-03-03T10:01:17Z</time>
      </trkpt>
      <trkpt lat="44.67584" lon="1.07166">
        <ele>223.16</ele>
        <time>2013-03-03T10:01:34Z</time>
      </trkpt>
      <trkpt lat="44.67602" lon="1.07142">
        <ele>225.57</ele>
        <time>2013-03-03T10:01:46Z</time>
      </trkpt>
      <trkpt lat="44.67615" lon="1.07106">
        <ele>228.93</ele>
        <time>2013-03-03T10:02:01Z</time>
      </trkpt>
      <trkpt lat="44.67607" lon="1.07068">
        <ele>231.81</ele>
        <time>2013-03-03T10:02:15Z</time>
      </trkpt>
      <trkpt lat="44.67585" lon="1.07041">
        <ele>237.1</ele>
        <time>2013-03-03T10:02:31Z</time>
      </trkpt>
      <trkpt lat="44.67561" lon="1.07024">
        <ele>240.47</ele>
        <time>2013-03-03T10:02:45Z</time>
      </trkpt>
      <trkpt lat="44.67533" lon="1.07011">
        <ele>243.83</ele>
        <time>2013-03-03T10:03:00Z</time>
      </trkpt>
      <trkpt lat="44.67503" lon="1.07018">
        <ele>247.2</ele>
        <time>2013-03-03T10:03:15Z</time>
      </trkpt>
      <trkpt lat="44.67473" lon="1.07037">
        <ele>247.68</ele>
        <time>2013-03-03T10:03:30Z</time>
      </trkpt>
      <trkpt lat="44.67439" lon="1.0704">
        <ele>247.68</ele>
        <time>2013-03-03T10:03:45Z</time>
      </trkpt>
      <trkpt lat="44.67394" lon="1.07025">
        <ele>248.64</ele>
        <time>2013-03-03T10:04:03Z</time>
      </trkpt>
      <trkpt lat="44.6734" lon="1.07021">
        <ele>248.16</ele>
        <time>2013-03-03T10:04:21Z</time>
      </trkpt>
      <trkpt lat="44.67288" lon="1.07023">
        <ele>250.08</ele>
        <time>2013-03-03T10:04:37Z</time>
      </trkpt>
      <trkpt lat="44.6724" lon="1.07011">
        <ele>254.89</ele>
        <time>2013-03-03T10:04:53Z</time>
      </trkpt>
      <trkpt lat="44.67192" lon="1.07005">
        <ele>254.89</ele>
        <time>2013-03-03T10:05:09Z</time>
      </trkpt>
      <trkpt lat="44.67166" lon="1.07002">
        <ele>253.44</ele>
        <time>2013-03-03T10:05:21Z</time>
      </trkpt>
      <trkpt lat="44.67131" lon="1.06986">
        <ele>248.64</ele>
        <time>2013-03-03T10:05:29Z</time>
      </trkpt>
      <trkpt lat="44.67072" lon="1.06997">
        <ele>241.91</ele>
        <time>2013-03-03T10:05:37Z</time>
      </trkpt>
      <trkpt lat="44.67044" lon="1.07015">
        <ele>239.02</ele>
        <time>2013-03-03T10:05:41Z</time>
      </trkpt>
      <trkpt lat="44.67023" lon="1.07032">
        <ele>236.62</ele>
        <time>2013-03-03T10:05:44Z</time>
      </trkpt>
      <trkpt lat="44.66985" lon="1.07055">
        <ele>232.78</ele>
        <time>2013-03-03T10:05:49Z</time>
      </trkpt>
      <trkpt lat="44.66959" lon="1.07082">
        <ele>234.22</ele>
        <time>2013-03-03T10:05:58Z</time>
      </trkpt>
      <trkpt lat="44.66945" lon="1.0711">
        <ele>243.35</ele>
        <time>2013-03-03T10:06:08Z</time>
      </trkpt>
      <trkpt lat="44.6693" lon="1.07132">
        <ele>250.08</ele>
        <time>2013-03-03T10:06:18Z</time>
      </trkpt>
      <trkpt lat="44.66912" lon="1.07146">
        <ele>254.41</ele>
        <time>2013-03-03T10:06:30Z</time>
      </trkpt>
      <trkpt lat="44.66896" lon="1.07163">
        <ele>258.73</ele>
        <time>2013-03-03T10:06:44Z</time>
      </trkpt>
      <trkpt lat="44.66878" lon="1.07187">
        <ele>264.5</ele>
        <time>2013-03-03T10:07:01Z</time>
      </trkpt>
      <trkpt lat="44.66863" lon="1.07201">
        <ele>267.38</ele>
        <time>2013-03-03T10:07:13Z</time>
      </trkpt>
      <trkpt lat="44.66848" lon="1.07209">
        <ele>268.83</ele>
        <time>2013-03-03T10:07:22Z</time>
      </trkpt>
      <trkpt lat="44.66828" lon="1.07213">
        <ele>269.79</ele>
        <time>2013-03-03T10:07:37Z</time>
      </trkpt>
      <trkpt lat="44.66825" lon="1.07214">
        <ele>269.79</ele>
        <time>2013-03-03T10:07:40Z</time>
      </trkpt>
      <trkpt lat="44.66811" lon="1.07222">
        <ele>268.83</ele>
        <time>2013-03-03T10:07:54Z</time>
      </trkpt>
      <trkpt lat="44.66806" lon="1.07223">
        <ele>268.83</ele>
        <time>2013-03-03T10:08:04Z</time>
      </trkpt>
      <trkpt lat="44.66805" lon="1.07223">
        <ele>266.9</ele>
        <time>2013-03-03T10:08:24Z</time>
      </trkpt>
      <trkpt lat="44.66798" lon="1.07227">
        <ele>265.94</ele>
        <time>2013-03-03T10:08:32Z</time>
      </trkpt>
      <trkpt lat="44.66783" lon="1.07224">
        <ele>266.42</ele>
        <time>2013-03-03T10:08:39Z</time>
      </trkpt>
      <trkpt lat="44.66754" lon="1.07207">
        <ele>264.98</ele>
        <time>2013-03-03T10:08:52Z</time>
      </trkpt>
      <trkpt lat="44.66731" lon="1.07191">
        <ele>261.62</ele>
        <time>2013-03-03T10:08:59Z</time>
      </trkpt>
      <trkpt lat="44.66718" lon="1.07186">
        <ele>260.17</ele>
        <time>2013-03-03T10:09:02Z</time>
      </trkpt>
      <trkpt lat="44.66693" lon="1.07175">
        <ele>257.77</ele>
        <time>2013-03-03T10:09:07Z</time>
      </trkpt>
      <trkpt lat="44.66666" lon="1.0717">
        <ele>256.33</ele>
        <time>2013-03-03T10:09:12Z</time>
      </trkpt>
      <trkpt lat="44.6664" lon="1.07161">
        <ele>255.85</ele>
        <time>2013-03-03T10:09:18Z</time>
      </trkpt>
      <trkpt lat="44.66597" lon="1.07165">
        <ele>258.73</ele>
        <time>2013-03-03T10:09:30Z</time>
      </trkpt>
      <trkpt lat="44.66555" lon="1.07182">
        <ele>260.65</ele>
        <time>2013-03-03T10:09:42Z</time>
      </trkpt>
      <trkpt lat="44.66508" lon="1.07197">
        <ele>257.77</ele>
        <time>2013-03-03T10:09:53Z</time>
      </trkpt>
      <trkpt lat="44.66504" lon="1.07198">
        <ele>257.77</ele>
        <time>2013-03-03T10:09:54Z</time>
      </trkpt>
      <trkpt lat="44.66466" lon="1.07216">
        <ele>258.25</ele>
        <time>2013-03-03T10:10:03Z</time>
      </trkpt>
      <trkpt lat="44.66445" lon="1.07226">
        <ele>258.73</ele>
        <time>2013-03-03T10:10:08Z</time>
      </trkpt>
      <trkpt lat="44.66386" lon="1.07251">
        <ele>259.69</ele>
        <time>2013-03-03T10:10:22Z</time>
      </trkpt>
      <trkpt lat="44.66382" lon="1.07253">
        <ele>259.69</ele>
        <time>2013-03-03T10:10:23Z</time>
      </trkpt>
      <trkpt lat="44.66353" lon="1.07259">
        <ele>259.21</ele>
        <time>2013-03-03T10:10:29Z</time>
      </trkpt>
      <trkpt lat="44.66335" lon="1.07269">
        <ele>257.77</ele>
        <time>2013-03-03T10:10:33Z</time>
      </trkpt>
      <trkpt lat="44.66288" lon="1.07309">
        <ele>256.33</ele>
        <time>2013-03-03T10:10:46Z</time>
      </trkpt>
      <trkpt lat="44.66285" lon="1.0731">
        <ele>256.81</ele>
        <time>2013-03-03T10:10:48Z</time>
      </trkpt>
      <trkpt lat="44.66281" lon="1.07311">
        <ele>257.77</ele>
        <time>2013-03-03T10:10:51Z</time>
      </trkpt>
      <trkpt lat="44.66277" lon="1.07318">
        <ele>260.17</ele>
        <time>2013-03-03T10:11:05Z</time>
      </trkpt>
      <trkpt lat="44.66278" lon="1.07321">
        <ele>262.1</ele>
        <time>2013-03-03T10:11:20Z</time>
      </trkpt>
      <trkpt lat="44.66254" lon="1.07327">
        <ele>262.1</ele>
        <time>2013-03-03T10:11:31Z</time>
      </trkpt>
      <trkpt lat="44.66222" lon="1.07322">
        <ele>264.98</ele>
        <time>2013-03-03T10:11:42Z</time>
      </trkpt>
      <trkpt lat="44.66195" lon="1.07302">
        <ele>264.02</ele>
        <time>2013-03-03T10:11:50Z</time>
      </trkpt>
      <trkpt lat="44.66179" lon="1.07254">
        <ele>257.29</ele>
        <time>2013-03-03T10:11:57Z</time>
      </trkpt>
      <trkpt lat="44.66171" lon="1.07237">
        <ele>254.89</ele>
        <time>2013-03-03T10:11:59Z</time>
      </trkpt>
      <trkpt lat="44.66156" lon="1.0722">
        <ele>252</ele>
        <time>2013-03-03T10:12:07Z</time>
      </trkpt>
      <trkpt lat="44.66155" lon="1.07221">
        <ele>252</ele>
        <time>2013-03-03T10:12:08Z</time>
      </trkpt>
      <trkpt lat="44.66148" lon="1.07227">
        <ele>252.96</ele>
        <time>2013-03-03T10:12:12Z</time>
      </trkpt>
      <trkpt lat="44.66118" lon="1.07221">
        <ele>254.89</ele>
        <time>2013-03-03T10:12:21Z</time>
      </trkpt>
      <trkpt lat="44.66099" lon="1.07209">
        <ele>253.93</ele>
        <time>2013-03-03T10:12:26Z</time>
      </trkpt>
      <trkpt lat="44.66087" lon="1.07211">
        <ele>253.44</ele>
        <time>2013-03-03T10:12:30Z</time>
      </trkpt>
      <trkpt lat="44.6606" lon="1.07219">
        <ele>253.93</ele>
        <time>2013-03-03T10:12:40Z</time>
      </trkpt>
      <trkpt lat="44.66053" lon="1.07218">
        <ele>254.89</ele>
        <time>2013-03-03T10:12:44Z</time>
      </trkpt>
      <trkpt lat="44.66046" lon="1.07212">
        <ele>255.85</ele>
        <time>2013-03-03T10:12:48Z</time>
      </trkpt>
      <trkpt lat="44.66034" lon="1.07206">
        <ele>258.25</ele>
        <time>2013-03-03T10:13:00Z</time>
      </trkpt>
      <trkpt lat="44.66032" lon="1.07204">
        <ele>257.77</ele>
        <time>2013-03-03T10:13:16Z</time>
      </trkpt>
      <trkpt lat="44.66015" lon="1.072">
        <ele>256.81</ele>
        <time>2013-03-03T10:13:29Z</time>
      </trkpt>
      <trkpt lat="44.66008" lon="1.0719">
        <ele>256.81</ele>
        <time>2013-03-03T10:13:34Z</time>
      </trkpt>
      <trkpt lat="44.65987" lon="1.07171">
        <ele>256.33</ele>
        <time>2013-03-03T10:13:45Z</time>
      </trkpt>
      <trkpt lat="44.65982" lon="1.07175">
        <ele>256.81</ele>
        <time>2013-03-03T10:13:47Z</time>
      </trkpt>
      <trkpt lat="44.65945" lon="1.07204">
        <ele>259.69</ele>
        <time>2013-03-03T10:14:00Z</time>
      </trkpt>
      <trkpt lat="44.65909" lon="1.07237">
        <ele>258.25</ele>
        <time>2013-03-03T10:14:12Z</time>
      </trkpt>
      <trkpt lat="44.65887" lon="1.07255">
        <ele>255.37</ele>
        <time>2013-03-03T10:14:23Z</time>
      </trkpt>
      <trkpt lat="44.65881" lon="1.0726">
        <ele>253.44</ele>
        <time>2013-03-03T10:14:32Z</time>
      </trkpt>
      <trkpt lat="44.65869" lon="1.07269">
        <ele>251.52</ele>
        <time>2013-03-03T10:14:40Z</time>
      </trkpt>
      <trkpt lat="44.65861" lon="1.07265">
        <ele>251.04</ele>
        <time>2013-03-03T10:14:44Z</time>
      </trkpt>
      <trkpt lat="44.65857" lon="1.07263">
        <ele>250.56</ele>
        <time>2013-03-03T10:14:46Z</time>
      </trkpt>
      <trkpt lat="44.65849" lon="1.0726">
        <ele>248.64</ele>
        <time>2013-03-03T10:15:01Z</time>
      </trkpt>
      <trkpt lat="44.65844" lon="1.07259">
        <ele>248.16</ele>
        <time>2013-03-03T10:15:14Z</time>
      </trkpt>
      <trkpt lat="44.65836" lon="1.07251">
        <ele>248.16</ele>
        <time>2013-03-03T10:15:19Z</time>
      </trkpt>
      <trkpt lat="44.65827" lon="1.07237">
        <ele>248.64</ele>
        <time>2013-03-03T10:15:24Z</time>
      </trkpt>
      <trkpt lat="44.65817" lon="1.07244">
        <ele>248.64</ele>
        <time>2013-03-03T10:15:33Z</time>
      </trkpt>
      <trkpt lat="44.65816" lon="1.07245">
        <ele>248.16</ele>
        <time>2013-03-03T10:15:35Z</time>
      </trkpt>
      <trkpt lat="44.65812" lon="1.07246">
        <ele>248.16</ele>
        <time>2013-03-03T10:15:38Z</time>
      </trkpt>
      <trkpt lat="44.65803" lon="1.0725">
        <ele>250.08</ele>
        <time>2013-03-03T10:15:43Z</time>
      </trkpt>
      <trkpt lat="44.65793" lon="1.07247">
        <ele>250.56</ele>
        <time>2013-03-03T10:15:47Z</time>
      </trkpt>
      <trkpt lat="44.65782" lon="1.07258">
        <ele>251.52</ele>
        <time>2013-03-03T10:15:55Z</time>
      </trkpt>
      <trkpt lat="44.65772" lon="1.07271">
        <ele>253.44</ele>
        <time>2013-03-03T10:16:01Z</time>
      </trkpt>
      <trkpt lat="44.65755" lon="1.07292">
        <ele>255.37</ele>
        <time>2013-03-03T10:16:08Z</time>
      </trkpt>
      <trkpt lat="44.65745" lon="1.07308">
        <ele>255.85</ele>
        <time>2013-03-03T10:16:12Z</time>
      </trkpt>
      <trkpt lat="44.65726" lon="1.07317">
        <ele>254.89</ele>
        <time>2013-03-03T10:16:17Z</time>
      </trkpt>
      <trkpt lat="44.65704" lon="1.07322">
        <ele>252.48</ele>
        <time>2013-03-03T10:16:22Z</time>
      </trkpt>
      <trkpt lat="44.65678" lon="1.07341">
        <ele>249.6</ele>
        <time>2013-03-03T10:16:29Z</time>
      </trkpt>
      <trkpt lat="44.65667" lon="1.07355">
        <ele>247.2</ele>
        <time>2013-03-03T10:16:32Z</time>
      </trkpt>
      <trkpt lat="44.65651" lon="1.07372">
        <ele>242.87</ele>
        <time>2013-03-03T10:16:36Z</time>
      </trkpt>
      <trkpt lat="44.65627" lon="1.07399">
        <ele>237.1</ele>
        <time>2013-03-03T10:16:42Z</time>
      </trkpt>
      <trkpt lat="44.65599" lon="1.07432">
        <ele>231.33</ele>
        <time>2013-03-03T10:16:52Z</time>
      </trkpt>
      <trkpt lat="44.65581" lon="1.07473">
        <ele>226.05</ele>
        <time>2013-03-03T10:17:00Z</time>
      </trkpt>
      <trkpt lat="44.6557" lon="1.07488">
        <ele>223.64</ele>
        <time>2013-03-03T10:17:03Z</time>
      </trkpt>
      <trkpt lat="44.65553" lon="1.07518">
        <ele>217.4</ele>
        <time>2013-03-03T10:17:11Z</time>
      </trkpt>
      <trkpt lat="44.65559" lon="1.07533">
        <ele>213.07</ele>
        <time>2013-03-03T10:17:16Z</time>
      </trkpt>
      <trkpt lat="44.65564" lon="1.07562">
        <ele>208.26</ele>
        <time>2013-03-03T10:17:23Z</time>
      </trkpt>
      <trkpt lat="44.65554" lon="1.07581">
        <ele>204.9</ele>
        <time>2013-03-03T10:17:29Z</time>
      </trkpt>
      <trkpt lat="44.65533" lon="1.07603">
        <ele>199.61</ele>
        <time>2013-03-03T10:17:34Z</time>
      </trkpt>
      <trkpt lat="44.655" lon="1.07633">
        <ele>194.8</ele>
        <time>2013-03-03T10:17:40Z</time>
      </trkpt>
      <trkpt lat="44.65477" lon="1.07654">
        <ele>191.44</ele>
        <time>2013-03-03T10:17:45Z</time>
      </trkpt>
      <trkpt lat="44.65458" lon="1.07664">
        <ele>188.08</ele>
        <time>2013-03-03T10:17:49Z</time>
      </trkpt>
      <trkpt lat="44.65425" lon="1.07675">
        <ele>179.42</ele>
        <time>2013-03-03T10:17:56Z</time>
      </trkpt>
      <trkpt lat="44.65422" lon="1.07675">
        <ele>177.98</ele>
        <time>2013-03-03T10:17:57Z</time>
      </trkpt>
      <trkpt lat="44.65415" lon="1.07687">
        <ele>174.14</ele>
        <time>2013-03-03T10:18:07Z</time>
      </trkpt>
      <trkpt lat="44.65413" lon="1.07686">
        <ele>172.21</ele>
        <time>2013-03-03T10:18:22Z</time>
      </trkpt>
      <trkpt lat="44.65414" lon="1.07686">
        <ele>171.25</ele>
        <time>2013-03-03T10:18:36Z</time>
      </trkpt>
      <trkpt lat="44.65413" lon="1.07686">
        <ele>172.21</ele>
        <time>2013-03-03T10:18:58Z</time>
      </trkpt>
      <trkpt lat="44.65414" lon="1.07686">
        <ele>172.69</ele>
        <time>2013-03-03T10:19:19Z</time>
      </trkpt>
      <trkpt lat="44.65413" lon="1.07686">
        <ele>173.17</ele>
        <time>2013-03-03T10:19:48Z</time>
      </trkpt>
      <trkpt lat="44.65413" lon="1.07687">
        <ele>173.66</ele>
        <time>2013-03-03T10:20:01Z</time>
      </trkpt>
      <trkpt lat="44.65415" lon="1.07687">
        <ele>174.14</ele>
        <time>2013-03-03T10:20:17Z</time>
      </trkpt>
      <trkpt lat="44.65417" lon="1.07699">
        <ele>173.66</ele>
        <time>2013-03-03T10:20:25Z</time>
      </trkpt>
      <trkpt lat="44.65422" lon="1.0774">
        <ele>172.21</ele>
        <time>2013-03-03T10:20:40Z</time>
      </trkpt>
      <trkpt lat="44.65427" lon="1.07782">
        <ele>172.21</ele>
        <time>2013-03-03T10:20:53Z</time>
      </trkpt>
      <trkpt lat="44.65435" lon="1.07853">
        <ele>171.25</ele>
        <time>2013-03-03T10:21:11Z</time>
      </trkpt>
      <trkpt lat="44.6545" lon="1.07927">
        <ele>171.73</ele>
        <time>2013-03-03T10:21:26Z</time>
      </trkpt>
      <trkpt lat="44.65469" lon="1.07978">
        <ele>173.66</ele>
        <time>2013-03-03T10:21:36Z</time>
      </trkpt>
      <trkpt lat="44.65494" lon="1.0803">
        <ele>173.66</ele>
        <time>2013-03-03T10:21:47Z</time>
      </trkpt>
      <trkpt lat="44.65535" lon="1.08141">
        <ele>176.06</ele>
        <time>2013-03-03T10:22:08Z</time>
      </trkpt>
      <trkpt lat="44.65559" lon="1.08215">
        <ele>177.5</ele>
        <time>2013-03-03T10:22:21Z</time>
      </trkpt>
      <trkpt lat="44.6554" lon="1.08245">
        <ele>176.54</ele>
        <time>2013-03-03T10:22:30Z</time>
      </trkpt>
      <trkpt lat="44.65509" lon="1.08276">
        <ele>179.42</ele>
        <time>2013-03-03T10:22:41Z</time>
      </trkpt>
      <trkpt lat="44.65465" lon="1.08318">
        <ele>180.38</ele>
        <time>2013-03-03T10:22:54Z</time>
      </trkpt>
      <trkpt lat="44.65432" lon="1.0838">
        <ele>178.94</ele>
        <time>2013-03-03T10:23:08Z</time>
      </trkpt>
      <trkpt lat="44.65413" lon="1.08442">
        <ele>177.98</ele>
        <time>2013-03-03T10:23:20Z</time>
      </trkpt>
      <trkpt lat="44.65377" lon="1.08547">
        <ele>181.35</ele>
        <time>2013-03-03T10:23:39Z</time>
      </trkpt>
      <trkpt lat="44.65348" lon="1.08657">
        <ele>182.79</ele>
        <time>2013-03-03T10:23:58Z</time>
      </trkpt>
      <trkpt lat="44.65321" lon="1.0876">
        <ele>182.79</ele>
        <time>2013-03-03T10:24:15Z</time>
      </trkpt>
      <trkpt lat="44.65315" lon="1.08865">
        <ele>183.27</ele>
        <time>2013-03-03T10:24:31Z</time>
      </trkpt>
      <trkpt lat="44.65334" lon="1.08952">
        <ele>183.75</ele>
        <time>2013-03-03T10:24:44Z</time>
      </trkpt>
      <trkpt lat="44.6534" lon="1.09">
        <ele>181.83</ele>
        <time>2013-03-03T10:24:50Z</time>
      </trkpt>
      <trkpt lat="44.6534" lon="1.09027">
        <ele>181.35</ele>
        <time>2013-03-03T10:24:53Z</time>
      </trkpt>
      <trkpt lat="44.65314" lon="1.09133">
        <ele>180.38</ele>
        <time>2013-03-03T10:25:07Z</time>
      </trkpt>
      <trkpt lat="44.65299" lon="1.09171">
        <ele>181.35</ele>
        <time>2013-03-03T10:25:13Z</time>
      </trkpt>
      <trkpt lat="44.6528" lon="1.09211">
        <ele>182.79</ele>
        <time>2013-03-03T10:25:20Z</time>
      </trkpt>
      <trkpt lat="44.6527" lon="1.09226">
        <ele>183.27</ele>
        <time>2013-03-03T10:25:23Z</time>
      </trkpt>
      <trkpt lat="44.65263" lon="1.09234">
        <ele>183.75</ele>
        <time>2013-03-03T10:25:25Z</time>
      </trkpt>
      <trkpt lat="44.65229" lon="1.09265">
        <ele>186.63</ele>
        <time>2013-03-03T10:25:36Z</time>
      </trkpt>
      <trkpt lat="44.65221" lon="1.09266">
        <ele>187.59</ele>
        <time>2013-03-03T10:25:41Z</time>
      </trkpt>
      <trkpt lat="44.65194" lon="1.0924">
        <ele>189.52</ele>
        <time>2013-03-03T10:25:55Z</time>
      </trkpt>
      <trkpt lat="44.65155" lon="1.09211">
        <ele>190.48</ele>
        <time>2013-03-03T10:26:11Z</time>
      </trkpt>
      <trkpt lat="44.65122" lon="1.09191">
        <ele>193.84</ele>
        <time>2013-03-03T10:26:23Z</time>
      </trkpt>
      <trkpt lat="44.65078" lon="1.09165">
        <ele>198.65</ele>
        <time>2013-03-03T10:26:38Z</time>
      </trkpt>
      <trkpt lat="44.65034" lon="1.09151">
        <ele>201.53</ele>
        <time>2013-03-03T10:26:52Z</time>
      </trkpt>
      <trkpt lat="44.64985" lon="1.09147">
        <ele>206.82</ele>
        <time>2013-03-03T10:27:06Z</time>
      </trkpt>
      <trkpt lat="44.64931" lon="1.09145">
        <ele>208.26</ele>
        <time>2013-03-03T10:27:21Z</time>
      </trkpt>
      <trkpt lat="44.64893" lon="1.09144">
        <ele>209.7</ele>
        <time>2013-03-03T10:27:32Z</time>
      </trkpt>
      <trkpt lat="44.64843" lon="1.09136">
        <ele>208.26</ele>
        <time>2013-03-03T10:27:46Z</time>
      </trkpt>
      <trkpt lat="44.64818" lon="1.09145">
        <ele>207.3</ele>
        <time>2013-03-03T10:27:58Z</time>
      </trkpt>
      <trkpt lat="44.64816" lon="1.09147">
        <ele>207.3</ele>
        <time>2013-03-03T10:27:59Z</time>
      </trkpt>
      <trkpt lat="44.64804" lon="1.09158">
        <ele>210.19</ele>
        <time>2013-03-03T10:28:10Z</time>
      </trkpt>
      <trkpt lat="44.64791" lon="1.09172">
        <ele>215.47</ele>
        <time>2013-03-03T10:28:20Z</time>
      </trkpt>
      <trkpt lat="44.6478" lon="1.09186">
        <ele>218.84</ele>
        <time>2013-03-03T10:28:30Z</time>
      </trkpt>
      <trkpt lat="44.64766" lon="1.09199">
        <ele>221.72</ele>
        <time>2013-03-03T10:28:40Z</time>
      </trkpt>
      <trkpt lat="44.64754" lon="1.09208">
        <ele>224.12</ele>
        <time>2013-03-03T10:28:50Z</time>
      </trkpt>
      <trkpt lat="44.64732" lon="1.09217">
        <ele>228.45</ele>
        <time>2013-03-03T10:29:04Z</time>
      </trkpt>
      <trkpt lat="44.64716" lon="1.09222">
        <ele>231.81</ele>
        <time>2013-03-03T10:29:15Z</time>
      </trkpt>
      <trkpt lat="44.64696" lon="1.09228">
        <ele>234.22</ele>
        <time>2013-03-03T10:29:29Z</time>
      </trkpt>
      <trkpt lat="44.64678" lon="1.09243">
        <ele>235.18</ele>
        <time>2013-03-03T10:29:43Z</time>
      </trkpt>
      <trkpt lat="44.6467" lon="1.09254">
        <ele>236.14</ele>
        <time>2013-03-03T10:29:51Z</time>
      </trkpt>
      <trkpt lat="44.64654" lon="1.09276">
        <ele>241.43</ele>
        <time>2013-03-03T10:30:03Z</time>
      </trkpt>
      <trkpt lat="44.64643" lon="1.09294">
        <ele>243.35</ele>
        <time>2013-03-03T10:30:13Z</time>
      </trkpt>
      <trkpt lat="44.64638" lon="1.09302">
        <ele>244.31</ele>
        <time>2013-03-03T10:30:17Z</time>
      </trkpt>
      <trkpt lat="44.64634" lon="1.09313">
        <ele>245.27</ele>
        <time>2013-03-03T10:30:22Z</time>
      </trkpt>
      <trkpt lat="44.64636" lon="1.09348">
        <ele>247.2</ele>
        <time>2013-03-03T10:30:38Z</time>
      </trkpt>
      <trkpt lat="44.64649" lon="1.09376">
        <ele>249.6</ele>
        <time>2013-03-03T10:30:52Z</time>
      </trkpt>
      <trkpt lat="44.6466" lon="1.09395">
        <ele>250.08</ele>
        <time>2013-03-03T10:31:03Z</time>
      </trkpt>
      <trkpt lat="44.64666" lon="1.09405">
        <ele>250.56</ele>
        <time>2013-03-03T10:31:08Z</time>
      </trkpt>
      <trkpt lat="44.64672" lon="1.09412">
        <ele>250.56</ele>
        <time>2013-03-03T10:31:12Z</time>
      </trkpt>
      <trkpt lat="44.64681" lon="1.09425">
        <ele>252</ele>
        <time>2013-03-03T10:31:19Z</time>
      </trkpt>
      <trkpt lat="44.64695" lon="1.09448">
        <ele>252.96</ele>
        <time>2013-03-03T10:31:32Z</time>
      </trkpt>
      <trkpt lat="44.64696" lon="1.09453">
        <ele>249.12</ele>
        <time>2013-03-03T10:31:45Z</time>
      </trkpt>
      <trkpt lat="44.64696" lon="1.09454">
        <ele>247.2</ele>
        <time>2013-03-03T10:32:06Z</time>
      </trkpt>
      <trkpt lat="44.64691" lon="1.09464">
        <ele>248.64</ele>
        <time>2013-03-03T10:32:16Z</time>
      </trkpt>
      <trkpt lat="44.64677" lon="1.09502">
        <ele>252</ele>
        <time>2013-03-03T10:32:33Z</time>
      </trkpt>
      <trkpt lat="44.64666" lon="1.09533">
        <ele>255.37</ele>
        <time>2013-03-03T10:32:47Z</time>
      </trkpt>
      <trkpt lat="44.64651" lon="1.09575">
        <ele>259.69</ele>
        <time>2013-03-03T10:33:05Z</time>
      </trkpt>
      <trkpt lat="44.64636" lon="1.09611">
        <ele>265.46</ele>
        <time>2013-03-03T10:33:22Z</time>
      </trkpt>
      <trkpt lat="44.64609" lon="1.09651">
        <ele>268.35</ele>
        <time>2013-03-03T10:33:42Z</time>
      </trkpt>
      <trkpt lat="44.64578" lon="1.09676">
        <ele>271.71</ele>
        <time>2013-03-03T10:34:02Z</time>
      </trkpt>
      <trkpt lat="44.64547" lon="1.0968">
        <ele>271.71</ele>
        <time>2013-03-03T10:34:17Z</time>
      </trkpt>
      <trkpt lat="44.64514" lon="1.09679">
        <ele>272.67</ele>
        <time>2013-03-03T10:34:33Z</time>
      </trkpt>
      <trkpt lat="44.64506" lon="1.09677">
        <ele>273.63</ele>
        <time>2013-03-03T10:34:46Z</time>
      </trkpt>
      <trkpt lat="44.64504" lon="1.09678">
        <ele>273.15</ele>
        <time>2013-03-03T10:35:05Z</time>
      </trkpt>
      <trkpt lat="44.64506" lon="1.09678">
        <ele>273.15</ele>
        <time>2013-03-03T10:35:25Z</time>
      </trkpt>
      <trkpt lat="44.64505" lon="1.09679">
        <ele>272.19</ele>
        <time>2013-03-03T10:35:49Z</time>
      </trkpt>
      <trkpt lat="44.64506" lon="1.0968">
        <ele>277</ele>
        <time>2013-03-03T10:36:11Z</time>
      </trkpt>
      <trkpt lat="44.64503" lon="1.09679">
        <ele>276.52</ele>
        <time>2013-03-03T10:36:35Z</time>
      </trkpt>
      <trkpt lat="44.64492" lon="1.09675">
        <ele>276.52</ele>
        <time>2013-03-03T10:36:45Z</time>
      </trkpt>
      <trkpt lat="44.64485" lon="1.09674">
        <ele>276.52</ele>
        <time>2013-03-03T10:36:48Z</time>
      </trkpt>
      <trkpt lat="44.64432" lon="1.09674">
        <ele>272.19</ele>
        <time>2013-03-03T10:37:03Z</time>
      </trkpt>
      <trkpt lat="44.64357" lon="1.09677">
        <ele>271.71</ele>
        <time>2013-03-03T10:37:21Z</time>
      </trkpt>
      <trkpt lat="44.64287" lon="1.09679">
        <ele>272.67</ele>
        <time>2013-03-03T10:37:37Z</time>
      </trkpt>
      <trkpt lat="44.64219" lon="1.09659">
        <ele>274.11</ele>
        <time>2013-03-03T10:37:53Z</time>
      </trkpt>
      <trkpt lat="44.64158" lon="1.09642">
        <ele>271.71</ele>
        <time>2013-03-03T10:38:05Z</time>
      </trkpt>
      <trkpt lat="44.6404" lon="1.09599">
        <ele>264.02</ele>
        <time>2013-03-03T10:38:24Z</time>
      </trkpt>
      <trkpt lat="44.63978" lon="1.09601">
        <ele>264.5</ele>
        <time>2013-03-03T10:38:35Z</time>
      </trkpt>
      <trkpt lat="44.63965" lon="1.09605">
        <ele>264.98</ele>
        <time>2013-03-03T10:38:38Z</time>
      </trkpt>
      <trkpt lat="44.63933" lon="1.09616">
        <ele>264.5</ele>
        <time>2013-03-03T10:38:46Z</time>
      </trkpt>
      <trkpt lat="44.63916" lon="1.09596">
        <ele>263.06</ele>
        <time>2013-03-03T10:38:53Z</time>
      </trkpt>
      <trkpt lat="44.63872" lon="1.09539">
        <ele>255.37</ele>
        <time>2013-03-03T10:39:07Z</time>
      </trkpt>
      <trkpt lat="44.63821" lon="1.09481">
        <ele>244.79</ele>
        <time>2013-03-03T10:39:18Z</time>
      </trkpt>
      <trkpt lat="44.63783" lon="1.0946">
        <ele>245.27</ele>
        <time>2013-03-03T10:39:28Z</time>
      </trkpt>
      <trkpt lat="44.63758" lon="1.09436">
        <ele>250.08</ele>
        <time>2013-03-03T10:39:39Z</time>
      </trkpt>
      <trkpt lat="44.63736" lon="1.09413">
        <ele>253.93</ele>
        <time>2013-03-03T10:39:53Z</time>
      </trkpt>
      <trkpt lat="44.63713" lon="1.09392">
        <ele>255.85</ele>
        <time>2013-03-03T10:40:08Z</time>
      </trkpt>
      <trkpt lat="44.63686" lon="1.09369">
        <ele>258.25</ele>
        <time>2013-03-03T10:40:23Z</time>
      </trkpt>
      <trkpt lat="44.63655" lon="1.09345">
        <ele>260.17</ele>
        <time>2013-03-03T10:40:39Z</time>
      </trkpt>
      <trkpt lat="44.63624" lon="1.09322">
        <ele>262.58</ele>
        <time>2013-03-03T10:40:55Z</time>
      </trkpt>
      <trkpt lat="44.636" lon="1.09302">
        <ele>261.14</ele>
        <time>2013-03-03T10:41:09Z</time>
      </trkpt>
      <trkpt lat="44.63578" lon="1.09278">
        <ele>262.58</ele>
        <time>2013-03-03T10:41:23Z</time>
      </trkpt>
      <trkpt lat="44.63556" lon="1.09258">
        <ele>263.54</ele>
        <time>2013-03-03T10:41:35Z</time>
      </trkpt>
      <trkpt lat="44.63532" lon="1.09236">
        <ele>264.02</ele>
        <time>2013-03-03T10:41:48Z</time>
      </trkpt>
      <trkpt lat="44.63504" lon="1.0921">
        <ele>266.42</ele>
        <time>2013-03-03T10:42:03Z</time>
      </trkpt>
      <trkpt lat="44.63478" lon="1.09187">
        <ele>267.86</ele>
        <time>2013-03-03T10:42:17Z</time>
      </trkpt>
      <trkpt lat="44.63457" lon="1.09169">
        <ele>271.23</ele>
        <time>2013-03-03T10:42:30Z</time>
      </trkpt>
      <trkpt lat="44.63443" lon="1.09155">
        <ele>273.63</ele>
        <time>2013-03-03T10:42:41Z</time>
      </trkpt>
      <trkpt lat="44.63425" lon="1.09142">
        <ele>277</ele>
        <time>2013-03-03T10:42:53Z</time>
      </trkpt>
      <trkpt lat="44.63415" lon="1.09137">
        <ele>277.48</ele>
        <time>2013-03-03T10:43:06Z</time>
      </trkpt>
      <trkpt lat="44.63414" lon="1.09138">
        <ele>276.52</ele>
        <time>2013-03-03T10:43:29Z</time>
      </trkpt>
      <trkpt lat="44.63412" lon="1.09141">
        <ele>277</ele>
        <time>2013-03-03T10:43:41Z</time>
      </trkpt>
      <trkpt lat="44.63408" lon="1.09154">
        <ele>277</ele>
        <time>2013-03-03T10:43:47Z</time>
      </trkpt>
      <trkpt lat="44.63395" lon="1.09188">
        <ele>277.48</ele>
        <time>2013-03-03T10:44:02Z</time>
      </trkpt>
      <trkpt lat="44.63381" lon="1.09224">
        <ele>276.52</ele>
        <time>2013-03-03T10:44:10Z</time>
      </trkpt>
      <trkpt lat="44.63357" lon="1.09307">
        <ele>276.04</ele>
        <time>2013-03-03T10:44:24Z</time>
      </trkpt>
      <trkpt lat="44.63343" lon="1.09351">
        <ele>277.48</ele>
        <time>2013-03-03T10:44:35Z</time>
      </trkpt>
      <trkpt lat="44.6334" lon="1.09357">
        <ele>277.96</ele>
        <time>2013-03-03T10:44:37Z</time>
      </trkpt>
      <trkpt lat="44.63327" lon="1.09357">
        <ele>277.96</ele>
        <time>2013-03-03T10:44:44Z</time>
      </trkpt>
      <trkpt lat="44.63314" lon="1.09323">
        <ele>279.88</ele>
        <time>2013-03-03T10:44:55Z</time>
      </trkpt>
      <trkpt lat="44.63292" lon="1.09268">
        <ele>282.28</ele>
        <time>2013-03-03T10:45:08Z</time>
      </trkpt>
      <trkpt lat="44.63263" lon="1.09209">
        <ele>287.57</ele>
        <time>2013-03-03T10:45:22Z</time>
      </trkpt>
      <trkpt lat="44.63243" lon="1.09164">
        <ele>289.49</ele>
        <time>2013-03-03T10:45:35Z</time>
      </trkpt>
      <trkpt lat="44.63222" lon="1.09131">
        <ele>287.57</ele>
        <time>2013-03-03T10:45:45Z</time>
      </trkpt>
      <trkpt lat="44.63169" lon="1.09047">
        <ele>282.28</ele>
        <time>2013-03-03T10:45:57Z</time>
      </trkpt>
      <trkpt lat="44.63146" lon="1.09006">
        <ele>278.44</ele>
        <time>2013-03-03T10:46:02Z</time>
      </trkpt>
      <trkpt lat="44.63134" lon="1.08987">
        <ele>276.52</ele>
        <time>2013-03-03T10:46:05Z</time>
      </trkpt>
      <trkpt lat="44.63117" lon="1.0897">
        <ele>275.56</ele>
        <time>2013-03-03T10:46:09Z</time>
      </trkpt>
      <trkpt lat="44.63099" lon="1.08958">
        <ele>275.56</ele>
        <time>2013-03-03T10:46:13Z</time>
      </trkpt>
      <trkpt lat="44.6307" lon="1.08938">
        <ele>277</ele>
        <time>2013-03-03T10:46:20Z</time>
      </trkpt>
      <trkpt lat="44.63048" lon="1.089">
        <ele>275.56</ele>
        <time>2013-03-03T10:46:27Z</time>
      </trkpt>
      <trkpt lat="44.63032" lon="1.0888">
        <ele>274.11</ele>
        <time>2013-03-03T10:46:30Z</time>
      </trkpt>
      <trkpt lat="44.63014" lon="1.08864">
        <ele>272.19</ele>
        <time>2013-03-03T10:46:33Z</time>
      </trkpt>
      <trkpt lat="44.62995" lon="1.08816">
        <ele>266.9</ele>
        <time>2013-03-03T10:46:39Z</time>
      </trkpt>
      <trkpt lat="44.62995" lon="1.08793">
        <ele>264.5</ele>
        <time>2013-03-03T10:46:41Z</time>
      </trkpt>
      <trkpt lat="44.62983" lon="1.08746">
        <ele>263.54</ele>
        <time>2013-03-03T10:46:45Z</time>
      </trkpt>
      <trkpt lat="44.62949" lon="1.08654">
        <ele>262.1</ele>
        <time>2013-03-03T10:46:53Z</time>
      </trkpt>
      <trkpt lat="44.62927" lon="1.08616">
        <ele>260.17</ele>
        <time>2013-03-03T10:46:57Z</time>
      </trkpt>
      <trkpt lat="44.62904" lon="1.08592">
        <ele>259.21</ele>
        <time>2013-03-03T10:47:01Z</time>
      </trkpt>
      <trkpt lat="44.6287" lon="1.0855">
        <ele>255.37</ele>
        <time>2013-03-03T10:47:10Z</time>
      </trkpt>
      <trkpt lat="44.62857" lon="1.08522">
        <ele>252.48</ele>
        <time>2013-03-03T10:47:21Z</time>
      </trkpt>
      <trkpt lat="44.62858" lon="1.08491">
        <ele>247.2</ele>
        <time>2013-03-03T10:47:30Z</time>
      </trkpt>
      <trkpt lat="44.62857" lon="1.08475">
        <ele>243.35</ele>
        <time>2013-03-03T10:47:42Z</time>
      </trkpt>
      <trkpt lat="44.62855" lon="1.08461">
        <ele>241.91</ele>
        <time>2013-03-03T10:47:53Z</time>
      </trkpt>
      <trkpt lat="44.62844" lon="1.08416">
        <ele>239.51</ele>
        <time>2013-03-03T10:48:03Z</time>
      </trkpt>
      <trkpt lat="44.62827" lon="1.08339">
        <ele>236.14</ele>
        <time>2013-03-03T10:48:15Z</time>
      </trkpt>
      <trkpt lat="44.62825" lon="1.08277">
        <ele>232.78</ele>
        <time>2013-03-03T10:48:22Z</time>
      </trkpt>
      <trkpt lat="44.62837" lon="1.08236">
        <ele>231.81</ele>
        <time>2013-03-03T10:48:27Z</time>
      </trkpt>
      <trkpt lat="44.62864" lon="1.08195">
        <ele>230.85</ele>
        <time>2013-03-03T10:48:34Z</time>
      </trkpt>
      <trkpt lat="44.62873" lon="1.08172">
        <ele>230.37</ele>
        <time>2013-03-03T10:48:38Z</time>
      </trkpt>
      <trkpt lat="44.62876" lon="1.08154">
        <ele>230.37</ele>
        <time>2013-03-03T10:48:41Z</time>
      </trkpt>
      <trkpt lat="44.62875" lon="1.08137">
        <ele>230.37</ele>
        <time>2013-03-03T10:48:44Z</time>
      </trkpt>
      <trkpt lat="44.62887" lon="1.08124">
        <ele>228.93</ele>
        <time>2013-03-03T10:48:50Z</time>
      </trkpt>
      <trkpt lat="44.62906" lon="1.08127">
        <ele>225.57</ele>
        <time>2013-03-03T10:48:53Z</time>
      </trkpt>
      <trkpt lat="44.62928" lon="1.08132">
        <ele>221.72</ele>
        <time>2013-03-03T10:48:58Z</time>
      </trkpt>
      <trkpt lat="44.62932" lon="1.08127">
        <ele>221.24</ele>
        <time>2013-03-03T10:49:02Z</time>
      </trkpt>
      <trkpt lat="44.62935" lon="1.08105">
        <ele>220.76</ele>
        <time>2013-03-03T10:49:13Z</time>
      </trkpt>
      <trkpt lat="44.62941" lon="1.08042">
        <ele>221.24</ele>
        <time>2013-03-03T10:49:30Z</time>
      </trkpt>
      <trkpt lat="44.62945" lon="1.07988">
        <ele>221.24</ele>
        <time>2013-03-03T10:49:45Z</time>
      </trkpt>
      <trkpt lat="44.62946" lon="1.07985">
        <ele>221.24</ele>
        <time>2013-03-03T10:49:47Z</time>
      </trkpt>
      <trkpt lat="44.62945" lon="1.07966">
        <ele>221.24</ele>
        <time>2013-03-03T10:49:52Z</time>
      </trkpt>
      <trkpt lat="44.62946" lon="1.07952">
        <ele>221.24</ele>
        <time>2013-03-03T10:49:56Z</time>
      </trkpt>
      <trkpt lat="44.6293" lon="1.07929">
        <ele>217.88</ele>
        <time>2013-03-03T10:50:05Z</time>
      </trkpt>
      <trkpt lat="44.62932" lon="1.07925">
        <ele>217.4</ele>
        <time>2013-03-03T10:50:06Z</time>
      </trkpt>
      <trkpt lat="44.62948" lon="1.07875">
        <ele>216.91</ele>
        <time>2013-03-03T10:50:15Z</time>
      </trkpt>
      <trkpt lat="44.62973" lon="1.07795">
        <ele>216.91</ele>
        <time>2013-03-03T10:50:28Z</time>
      </trkpt>
      <trkpt lat="44.62986" lon="1.0775">
        <ele>215.95</ele>
        <time>2013-03-03T10:50:35Z</time>
      </trkpt>
      <trkpt lat="44.62995" lon="1.07706">
        <ele>215.47</ele>
        <time>2013-03-03T10:50:44Z</time>
      </trkpt>
      <trkpt lat="44.62998" lon="1.07696">
        <ele>219.8</ele>
        <time>2013-03-03T10:50:56Z</time>
      </trkpt>
      <trkpt lat="44.62999" lon="1.07687">
        <ele>220.76</ele>
        <time>2013-03-03T10:51:02Z</time>
      </trkpt>
      <trkpt lat="44.63009" lon="1.07645">
        <ele>221.72</ele>
        <time>2013-03-03T10:51:14Z</time>
      </trkpt>
      <trkpt lat="44.63025" lon="1.07584">
        <ele>222.68</ele>
        <time>2013-03-03T10:51:30Z</time>
      </trkpt>
      <trkpt lat="44.63027" lon="1.07575">
        <ele>222.68</ele>
        <time>2013-03-03T10:51:34Z</time>
      </trkpt>
      <trkpt lat="44.63032" lon="1.07555">
        <ele>222.68</ele>
        <time>2013-03-03T10:51:42Z</time>
      </trkpt>
      <trkpt lat="44.63042" lon="1.07552">
        <ele>223.64</ele>
        <time>2013-03-03T10:51:47Z</time>
      </trkpt>
      <trkpt lat="44.63047" lon="1.07554">
        <ele>223.64</ele>
        <time>2013-03-03T10:51:49Z</time>
      </trkpt>
      <trkpt lat="44.63064" lon="1.07565">
        <ele>223.16</ele>
        <time>2013-03-03T10:52:00Z</time>
      </trkpt>
      <trkpt lat="44.63062" lon="1.07559">
        <ele>219.32</ele>
        <time>2013-03-03T10:52:10Z</time>
      </trkpt>
      <trkpt lat="44.63052" lon="1.07595">
        <ele>219.32</ele>
        <time>2013-03-03T10:52:17Z</time>
      </trkpt>
      <trkpt lat="44.63049" lon="1.07602">
        <ele>218.84</ele>
        <time>2013-03-03T10:52:19Z</time>
      </trkpt>
      <trkpt lat="44.63035" lon="1.07646">
        <ele>217.4</ele>
        <time>2013-03-03T10:52:32Z</time>
      </trkpt>
      <trkpt lat="44.63014" lon="1.07723">
        <ele>217.4</ele>
        <time>2013-03-03T10:52:50Z</time>
      </trkpt>
      <trkpt lat="44.62996" lon="1.07788">
        <ele>218.84</ele>
        <time>2013-03-03T10:53:05Z</time>
      </trkpt>
      <trkpt lat="44.62975" lon="1.0786">
        <ele>219.8</ele>
        <time>2013-03-03T10:53:21Z</time>
      </trkpt>
      <trkpt lat="44.62968" lon="1.07894">
        <ele>220.76</ele>
        <time>2013-03-03T10:53:32Z</time>
      </trkpt>
      <trkpt lat="44.62968" lon="1.07899">
        <ele>224.12</ele>
        <time>2013-03-03T10:53:43Z</time>
      </trkpt>
    </trkseg>
  </trk>
</gpx>